M I D A S
Marine Information and Data Acquisition System
Tripno 2146 of the Zeeleeuw from 2011-07-15 08:13:18 to 2011-07-15 12:50:18
Back to CruiseResearch ActivitiesStationsMapUnderway DataData graphs

EquipmentUnitsComment
TimeDGPSUTC
LatitudeDGPSDM.mWGS84
LongitudeDGPSDM.mWGS84
TemperatureSBE03/SBE38deg celciusITS90
ConductivitySBE21S/mITS90
SalinitySBE21 Practical Salinity Units
ChlorophylAChelsea fluorimeterg/lCalibrated in Aceton
Missing or incorrect values are displayed as -999
Sea surface data collected by the RV Zeeleeuw from 2011-07-15 03:36:13 to 2011-07-15 12:59:38
                                                                                    Next 1000 lines
Time Latitude Longitude Temperature Conductivity Salinity ChlorophylA
2011-07-15 03:36:23 51°13.64 2°56.015 20.4368 0.009811 0.054585 -3.020363
2011-07-15 03:36:28 51°13.641 2°56.015 20.4384 0.009811 0.054585 -3.020363
2011-07-15 03:36:33 51°13.641 2°56.015 20.4384 0.009811 0.054585 -3.020363
2011-07-15 03:36:38 51°13.641 2°56.015 20.4396 0.009811 0.054584 -3.020363
2011-07-15 03:36:43 51°13.641 2°56.015 20.439 0.009811 0.054584 -3.020363
2011-07-15 03:36:48 51°13.644 2°56.007 20.4378 0.009811 0.054584 -3.020363
2011-07-15 03:36:54 51°13.645 2°56.007 20.4388 0.009811 0.054584 -3.020363
2011-07-15 03:36:59 51°13.645 2°56.007 20.439 0.009811 0.054584 -3.020363
2011-07-15 03:37:04 51°13.645 2°56.007 20.4391 0.009811 0.054584 -3.020363
2011-07-15 03:37:09 51°13.645 2°56.008 20.4385 0.009811 0.054584 -3.020363
2011-07-15 03:37:14 51°13.646 2°56.008 20.4389 0.009811 0.054584 -3.020363
2011-07-15 03:37:19 51°13.646 2°56.008 20.4385 0.009811 0.054584 -3.020363
2011-07-15 03:37:24 51°13.647 2°56.007 20.4394 0.009811 0.054583 -3.020363
2011-07-15 03:37:29 51°13.648 2°56.006 20.4394 0.009811 0.054583 -3.020363
2011-07-15 03:37:34 51°13.648 2°56.005 20.4397 0.009811 0.054583 -3.020363
2011-07-15 03:37:39 51°13.649 2°56.004 20.4392 0.009811 0.054583 -3.020363
2011-07-15 03:37:44 51°13.649 2°56.004 20.4384 0.009811 0.054583 -3.020363
2011-07-15 03:37:49 51°13.649 2°56.005 20.4392 0.009811 0.054583 -3.020363
2011-07-15 03:37:54 51°13.649 2°56.006 20.4383 0.009811 0.054583 -3.020363
2011-07-15 03:37:59 51°13.649 2°56.007 20.4382 0.009811 0.054583 -3.020363
2011-07-15 03:38:04 51°13.649 2°56.007 20.438 0.009811 0.054583 -3.020363
2011-07-15 03:38:09 51°13.649 2°56.007 20.4388 0.009811 0.054583 -3.020363
2011-07-15 03:38:14 51°13.65 2°56.006 20.4387 0.009811 0.054583 -3.020363
2011-07-15 03:38:19 51°13.65 2°56.005 20.4381 0.009811 0.054583 -3.020363
2011-07-15 03:38:24 51°13.651 2°56.006 20.4391 0.009811 0.054583 -3.020363
2011-07-15 03:38:29 51°13.651 2°56.007 20.4388 0.009811 0.054582 -3.020363
2011-07-15 03:38:34 51°13.65 2°56.007 20.4383 0.009811 0.054582 -3.020363
2011-07-15 03:38:39 51°13.65 2°56.008 20.438 0.009811 0.054582 -3.020363
2011-07-15 03:38:44 51°13.65 2°56.007 20.4375 0.009811 0.054582 -3.020363
2011-07-15 03:38:49 51°13.65 2°56.007 20.4373 0.009811 0.054582 -3.020363
2011-07-15 03:38:54 51°13.651 2°56.006 20.4377 0.009811 0.054582 -3.020363
2011-07-15 03:38:59 51°13.651 2°56.006 20.438 0.009811 0.054581 -3.020363
2011-07-15 03:39:04 51°13.652 2°56.006 20.4387 0.009811 0.054581 -3.020363
2011-07-15 03:39:09 51°13.652 2°56.006 20.438 0.009811 0.054581 -3.020363
2011-07-15 03:39:14 51°13.652 2°56.006 20.4385 0.009811 0.054581 -3.020363
2011-07-15 03:39:19 51°13.652 2°56.006 20.4376 0.009811 0.054581 -3.020363
2011-07-15 03:39:24 51°13.653 2°56.006 20.4384 0.009811 0.054581 -3.020363
2011-07-15 03:39:29 51°13.653 2°56.006 20.4384 0.009811 0.054581 -3.020363
2011-07-15 03:39:34 51°13.653 2°56.006 20.4394 0.009811 0.054581 -3.020363
2011-07-15 03:39:39 51°13.653 2°56.006 20.4376 0.009811 0.054581 -3.020363
2011-07-15 03:39:44 51°13.653 2°56.006 20.4383 0.009811 0.054581 -3.020363
2011-07-15 03:39:44 51°13.653 2°56.006 20.437 0.009811 0.054581 -3.020363
2011-07-15 03:39:44 51°13.653 2°56.006 20.4353 0.009811 0.054581 -3.020363
2011-07-15 03:39:44 51°13.653 2°56.006 20.4359 0.009811 0.054581 -3.020363
2011-07-15 03:39:44 51°13.653 2°56.006 20.436 0.009811 0.054581 -3.020363
2011-07-15 03:39:44 51°13.653 2°56.006 20.4371 0.009811 0.054581 -3.020363
2011-07-15 03:39:44 51°13.653 2°56.006 20.4369 0.009811 0.05458 -3.020363
2011-07-15 03:39:44 51°13.653 2°56.006 20.4378 0.009811 0.05458 -3.020363
2011-07-15 03:39:44 51°13.653 2°56.006 20.4378 0.009811 0.05458 -3.020363
2011-07-15 03:39:44 51°13.653 2°56.006 20.4385 0.009811 0.05458 -3.020363
2011-07-15 03:39:44 51°13.653 2°56.006 20.439 0.009811 0.05458 -3.020363
2011-07-15 03:39:44 51°13.653 2°56.006 20.4391 0.009811 0.05458 -3.020363
2011-07-15 03:39:44 51°13.653 2°56.006 20.4386 0.009811 0.054579 -3.020363
2011-07-15 03:40:49 51°13.653 2°56.006 20.4386 0.009811 0.054579 -3.020363
2011-07-15 03:40:54 51°13.653 2°56.006 20.4389 0.009811 0.054579 -3.020363
2011-07-15 03:40:59 51°13.653 2°56.006 20.4392 0.009811 0.054579 -3.020363
2011-07-15 03:41:04 51°13.653 2°56.006 20.4394 0.009811 0.054579 -3.020363
2011-07-15 03:41:09 51°13.653 2°56.006 20.439 0.009811 0.054579 -3.020363
2011-07-15 03:41:14 51°13.653 2°56.006 20.4377 0.009811 0.054579 -3.020363
2011-07-15 03:41:18 51°13.653 2°56.006 20.4379 0.009811 0.054579 -3.020363
2011-07-15 03:41:23 51°13.653 2°56.006 20.4374 0.009811 0.054579 -3.020363
2011-07-15 03:41:28 51°13.653 2°56.006 20.4381 0.009811 0.054579 -3.020363
2011-07-15 03:41:33 51°13.653 2°56.006 20.4376 0.009811 0.054579 -3.020363
2011-07-15 03:41:37 51°13.653 2°56.006 20.4373 0.009811 0.054579 -3.020363
2011-07-15 03:41:43 51°13.635 2°56.015 20.4375 0.009811 0.054579 -3.020363
2011-07-15 03:41:48 51°13.635 2°56.015 20.4376 0.009811 0.054579 -3.020363
2011-07-15 03:41:54 51°13.635 2°56.015 20.4379 0.009811 0.054578 -3.020363
2011-07-15 03:41:58 51°13.635 2°56.015 20.4376 0.009811 0.054578 -3.020363
2011-07-15 03:42:03 51°13.635 2°56.015 20.4384 0.009811 0.054578 -3.020363
2011-07-15 03:42:08 51°13.636 2°56.016 20.4384 0.009811 0.054578 -3.020363
2011-07-15 03:42:13 51°13.636 2°56.016 20.4385 0.009811 0.054578 -3.020363
2011-07-15 03:42:18 51°13.636 2°56.016 20.4387 0.009811 0.054578 -3.020363
2011-07-15 03:42:23 51°13.636 2°56.016 20.4387 0.009811 0.054577 -3.020363
2011-07-15 03:42:28 51°13.636 2°56.016 20.4384 0.009811 0.054577 -3.020363
2011-07-15 03:42:33 51°13.636 2°56.016 20.4382 0.009811 0.054577 -3.020363
2011-07-15 03:42:38 51°13.636 2°56.016 20.4381 0.009811 0.054577 -3.020363
2011-07-15 03:42:43 51°13.636 2°56.016 20.4388 0.009811 0.054577 -3.020363
2011-07-15 03:42:48 51°13.636 2°56.016 20.4379 0.009811 0.054577 -3.020363
2011-07-15 03:42:54 51°13.636 2°56.016 20.4382 0.009811 0.054577 -3.020363
2011-07-15 03:42:59 51°13.636 2°56.016 20.4383 0.009811 0.054577 -3.020363
2011-07-15 03:43:04 51°13.635 2°56.016 20.4384 0.009811 0.054577 -3.020363
2011-07-15 03:43:08 51°13.635 2°56.016 20.4388 0.009811 0.054577 -3.020363
2011-07-15 03:43:14 51°13.635 2°56.016 20.4384 0.009811 0.054577 -3.020363
2011-07-15 03:43:19 51°13.636 2°56.016 20.4391 0.009811 0.054577 -3.020363
2011-07-15 03:43:24 51°13.636 2°56.016 20.4381 0.009811 0.054576 -3.020363
2011-07-15 03:43:29 51°13.636 2°56.016 20.4387 0.009811 0.054576 -3.020363
2011-07-15 03:43:34 51°13.636 2°56.016 20.4382 0.009811 0.054576 -3.020363
2011-07-15 03:43:39 51°13.636 2°56.017 20.438 0.009811 0.054576 -3.020363
2011-07-15 03:43:43 51°13.636 2°56.016 20.4376 0.009811 0.054576 -3.020363
2011-07-15 03:43:49 51°13.635 2°56.016 20.4371 0.009811 0.054576 -3.020363
2011-07-15 03:43:53 51°13.635 2°56.016 20.4369 0.009811 0.054575 -3.020363
2011-07-15 03:43:58 51°13.635 2°56.016 20.4368 0.009811 0.054575 -3.020363
2011-07-15 03:44:03 51°13.635 2°56.016 20.4373 0.009811 0.054575 -3.020363
2011-07-15 03:44:08 51°13.635 2°56.016 20.437 0.009811 0.054575 -3.020363
2011-07-15 03:44:13 51°13.636 2°56.016 20.4374 0.009811 0.054575 -3.020363
2011-07-15 03:44:18 51°13.636 2°56.016 20.4377 0.009811 0.054575 -3.020363
2011-07-15 03:44:23 51°13.636 2°56.016 20.4387 0.009811 0.054575 -3.020363
2011-07-15 03:44:28 51°13.635 2°56.016 20.4384 0.009811 0.054575 -3.020363
2011-07-15 03:44:33 51°13.635 2°56.016 20.4387 0.009811 0.054575 -3.020363
2011-07-15 03:44:38 51°13.635 2°56.016 20.4388 0.009811 0.054575 -3.020363
2011-07-15 03:44:43 51°13.635 2°56.016 20.4392 0.009811 0.054575 -3.020363
2011-07-15 03:44:48 51°13.635 2°56.016 20.4389 0.009811 0.054575 -3.020363
2011-07-15 03:44:53 51°13.635 2°56.016 20.4386 0.009811 0.054574 -3.020363
2011-07-15 03:44:58 51°13.635 2°56.016 20.4387 0.009811 0.054574 -3.020363
2011-07-15 03:45:03 51°13.635 2°56.016 20.4383 0.009811 0.054574 -3.020363
2011-07-15 03:45:08 51°13.635 2°56.016 20.4387 0.009811 0.054574 -3.020363
2011-07-15 03:45:14 51°13.635 2°56.016 20.4384 0.009811 0.054573 -3.020363
2011-07-15 03:45:19 51°13.635 2°56.016 20.4387 0.009811 0.054573 -3.020363
2011-07-15 03:45:24 51°13.635 2°56.016 20.4383 0.009811 0.054573 -3.020363
2011-07-15 03:45:28 51°13.635 2°56.016 20.4382 0.009811 0.054573 -3.020363
2011-07-15 03:45:33 51°13.635 2°56.016 20.4374 0.009811 0.054573 -3.020363
2011-07-15 03:45:38 51°13.635 2°56.016 20.437 0.009811 0.054573 -3.020363
2011-07-15 03:45:43 51°13.635 2°56.016 20.4359 0.009811 0.054573 -3.020363
2011-07-15 03:45:48 51°13.635 2°56.016 20.4355 0.009811 0.054573 -3.020363
2011-07-15 03:45:53 51°13.635 2°56.016 20.4339 0.009811 0.054573 -3.020363
2011-07-15 03:45:58 51°13.635 2°56.016 20.4287 0.009811 0.054573 -3.020363
2011-07-15 03:46:03 51°13.635 2°56.016 20.4308 0.009811 0.054573 -3.020363
2011-07-15 03:46:07 51°13.635 2°56.016 20.4311 0.009811 0.054573 -3.020363
2011-07-15 03:46:13 51°13.635 2°56.016 20.4315 0.009811 0.054573 -3.020363
2011-07-15 03:46:19 51°13.635 2°56.016 20.4334 0.009811 0.054572 -3.020363
2011-07-15 03:46:24 51°13.635 2°56.016 20.433 0.009811 0.054572 -3.020363
2011-07-15 03:46:29 51°13.635 2°56.016 20.4334 0.009811 0.054573 -3.020363
2011-07-15 03:46:33 51°13.635 2°56.016 20.4344 0.009811 0.054572 -3.020363
2011-07-15 03:46:39 51°13.635 2°56.016 20.4344 0.009811 0.054572 -3.020363
2011-07-15 03:46:43 51°13.635 2°56.016 20.4347 0.009811 0.054572 -3.020363
2011-07-15 03:46:48 51°13.635 2°56.016 20.4341 0.009811 0.054572 -3.020363
2011-07-15 03:46:53 51°13.635 2°56.016 20.4344 0.009811 0.054572 -3.020363
2011-07-15 03:46:58 51°13.635 2°56.016 20.4325 0.009811 0.054572 -3.020363
2011-07-15 03:47:03 51°13.635 2°56.016 20.4331 0.009811 0.054572 -3.020363
2011-07-15 03:47:08 51°13.635 2°56.016 20.4338 0.009811 0.054572 -3.020363
2011-07-15 03:47:13 51°13.635 2°56.016 20.4346 0.009811 0.054572 -3.020363
2011-07-15 03:47:18 51°13.635 2°56.016 20.4355 0.009811 0.054572 -3.020363
2011-07-15 03:47:23 51°13.635 2°56.016 20.4362 0.009811 0.054572 -3.020363
2011-07-15 03:47:28 51°13.635 2°56.017 20.4369 0.009811 0.054572 -3.020363
2011-07-15 03:47:33 51°13.635 2°56.017 20.4368 0.009811 0.054572 -3.020363
2011-07-15 03:47:38 51°13.635 2°56.017 20.4364 0.009811 0.054571 -3.020363
2011-07-15 03:47:43 51°13.635 2°56.017 20.4373 0.009811 0.054571 -3.020363
2011-07-15 03:47:48 51°13.635 2°56.017 20.4371 0.009811 0.054571 -3.020363
2011-07-15 03:47:53 51°13.635 2°56.017 20.4373 0.009811 0.054571 -3.020363
2011-07-15 03:47:58 51°13.635 2°56.017 20.4379 0.009811 0.054571 -3.020363
2011-07-15 03:48:03 51°13.635 2°56.017 20.4376 0.009811 0.054571 -3.020363
2011-07-15 03:48:08 51°13.635 2°56.017 20.4373 0.009811 0.054571 -3.020363
2011-07-15 03:48:13 51°13.635 2°56.017 20.436 0.009811 0.054571 -3.020363
2011-07-15 03:48:18 51°13.635 2°56.017 20.4362 0.009811 0.054571 -3.020363
2011-07-15 03:48:23 51°13.635 2°56.017 20.4365 0.009811 0.054571 -3.020363
2011-07-15 03:48:29 51°13.635 2°56.017 20.4364 0.009811 0.05457 -3.020363
2011-07-15 03:48:34 51°13.635 2°56.017 20.4357 0.009811 0.05457 -3.020363
2011-07-15 03:48:38 51°13.635 2°56.017 20.4358 0.009811 0.05457 -3.020363
2011-07-15 03:48:43 51°13.635 2°56.017 20.4364 0.009811 0.05457 -3.020363
2011-07-15 03:48:48 51°13.635 2°56.017 20.4371 0.009811 0.05457 -3.020363
2011-07-15 03:48:53 51°13.635 2°56.017 20.4377 0.009811 0.05457 -3.020363
2011-07-15 03:48:58 51°13.636 2°56.017 20.4375 0.009811 0.05457 -3.020363
2011-07-15 03:49:04 51°13.635 2°56.018 20.4373 0.009811 0.05457 -3.020363
2011-07-15 03:49:09 51°13.635 2°56.017 20.4366 0.009811 0.05457 -3.020363
2011-07-15 03:49:14 51°13.635 2°56.017 20.4369 0.009811 0.054569 -3.020363
2011-07-15 03:49:19 51°13.635 2°56.017 20.4356 0.009811 0.054569 -3.020363
2011-07-15 03:49:24 51°13.635 2°56.017 20.435 0.009811 0.054569 -3.020363
2011-07-15 03:49:29 51°13.636 2°56.017 20.4349 0.009811 0.054569 -3.020363
2011-07-15 03:49:33 51°13.635 2°56.017 20.4353 0.009811 0.054569 -3.020363
2011-07-15 03:49:39 51°13.636 2°56.017 20.4357 0.009811 0.054569 -3.020363
2011-07-15 03:49:44 51°13.636 2°56.017 20.4364 0.009811 0.054569 -3.020363
2011-07-15 03:49:49 51°13.636 2°56.017 20.4369 0.009811 0.054569 -3.020363
2011-07-15 03:49:53 51°13.635 2°56.017 20.4375 0.009811 0.054569 -3.020363
2011-07-15 03:49:58 51°13.635 2°56.017 20.4375 0.009811 0.054569 -3.020363
2011-07-15 03:50:03 51°13.635 2°56.017 20.4379 0.009811 0.054568 -3.020363
2011-07-15 03:50:09 51°13.635 2°56.017 20.4379 0.009811 0.054568 -3.020363
2011-07-15 03:50:13 51°13.635 2°56.017 20.437 0.009811 0.054568 -3.020363
2011-07-15 03:50:18 51°13.635 2°56.017 20.4374 0.009811 0.054568 -3.020363
2011-07-15 03:50:23 51°13.635 2°56.017 20.4371 0.009811 0.054568 -3.020363
2011-07-15 03:50:28 51°13.635 2°56.017 20.437 0.009811 0.054568 -3.020363
2011-07-15 03:50:33 51°13.635 2°56.017 20.4378 0.009811 0.054568 -3.020363
2011-07-15 03:50:38 51°13.635 2°56.016 20.4377 0.009811 0.054568 -3.020363
2011-07-15 03:50:43 51°13.635 2°56.016 20.4379 0.009811 0.054568 -3.020363
2011-07-15 03:50:48 51°13.635 2°56.016 20.4378 0.009811 0.054568 -3.020363
2011-07-15 03:50:53 51°13.635 2°56.016 20.4379 0.009811 0.054568 -3.020363
2011-07-15 03:50:58 51°13.635 2°56.016 20.4379 0.009811 0.054568 -3.020363
2011-07-15 03:51:03 51°13.635 2°56.016 20.4379 0.009811 0.054568 -3.020363
2011-07-15 03:51:08 51°13.635 2°56.016 20.4372 0.009811 0.054568 -3.020363
2011-07-15 03:51:13 51°13.636 2°56.016 20.4369 0.009811 0.054568 -3.020363
2011-07-15 03:51:18 51°13.636 2°56.016 20.4371 0.009811 0.054568 -3.020363
2011-07-15 03:51:23 51°13.636 2°56.016 20.4369 0.009811 0.054567 -3.020363
2011-07-15 03:51:29 51°13.636 2°56.016 20.4362 0.009811 0.054567 -3.020363
2011-07-15 03:51:34 51°13.635 2°56.016 20.4368 0.009811 0.054567 -3.020363
2011-07-15 03:51:38 51°13.635 2°56.016 20.4363 0.009811 0.054567 -3.020363
2011-07-15 03:51:44 51°13.635 2°56.016 20.4367 0.009811 0.054567 -3.020363
2011-07-15 03:51:48 51°13.635 2°56.016 20.4359 0.009811 0.054567 -3.020363
2011-07-15 03:51:53 51°13.635 2°56.016 20.4359 0.009811 0.054567 -3.020363
2011-07-15 03:51:59 51°13.635 2°56.016 20.4359 0.009811 0.054566 -3.020363
2011-07-15 03:52:03 51°13.635 2°56.016 20.4371 0.009811 0.054566 -3.020363
2011-07-15 03:52:08 51°13.635 2°56.016 20.4364 0.009811 0.054567 -3.020363
2011-07-15 03:52:14 51°13.635 2°56.016 20.4371 0.009811 0.054566 -3.020363
2011-07-15 03:52:19 51°13.635 2°56.016 20.438 0.009811 0.054566 -3.020363
2011-07-15 03:52:23 51°13.635 2°56.016 20.4381 0.009811 0.054566 -3.020363
2011-07-15 03:52:28 51°13.635 2°56.016 20.4372 0.009811 0.054566 -3.020363
2011-07-15 03:52:33 51°13.636 2°56.016 20.4377 0.009811 0.054566 -3.020363
2011-07-15 03:52:38 51°13.635 2°56.016 20.4364 0.009811 0.054566 -3.020363
2011-07-15 03:52:43 51°13.635 2°56.016 20.4369 0.009811 0.054566 -3.020363
2011-07-15 03:52:48 51°13.635 2°56.016 20.4369 0.009811 0.054566 -3.020363
2011-07-15 03:52:53 51°13.635 2°56.016 20.437 0.009811 0.054566 -3.020363
2011-07-15 03:52:58 51°13.636 2°56.016 20.4354 0.009811 0.054565 -3.020363
2011-07-15 03:53:03 51°13.635 2°56.016 20.4362 0.009811 0.054566 -3.020363
2011-07-15 03:53:08 51°13.635 2°56.016 20.4354 0.009811 0.054565 -3.020363
2011-07-15 03:53:13 51°13.635 2°56.016 20.4357 0.009811 0.054566 -3.020363
2011-07-15 03:53:18 51°13.635 2°56.016 20.437 0.009811 0.054566 -3.020363
2011-07-15 03:53:23 51°13.635 2°56.016 20.4369 0.009811 0.054565 -3.020363
2011-07-15 03:53:28 51°13.635 2°56.016 20.4374 0.009811 0.054565 -3.020363
2011-07-15 03:53:33 51°13.635 2°56.016 20.4376 0.009811 0.054565 -3.020363
2011-07-15 03:53:38 51°13.635 2°56.016 20.4381 0.009811 0.054564 -3.020363
2011-07-15 03:53:43 51°13.635 2°56.016 20.4373 0.009811 0.054565 -3.020363
2011-07-15 03:53:48 51°13.635 2°56.016 20.4369 0.009811 0.054565 -3.020363
2011-07-15 03:53:54 51°13.635 2°56.016 20.4364 0.009811 0.054564 -3.020363
2011-07-15 03:53:59 51°13.635 2°56.017 20.4363 0.009811 0.054564 -3.020363
2011-07-15 03:54:03 51°13.635 2°56.017 20.4356 0.009811 0.054564 -3.020363
2011-07-15 03:54:08 51°13.635 2°56.017 20.4353 0.009811 0.054564 -3.020363
2011-07-15 03:54:13 51°13.635 2°56.016 20.4352 0.009811 0.054564 -3.020363
2011-07-15 03:54:18 51°13.635 2°56.017 20.4364 0.009811 0.054564 -3.020363
2011-07-15 03:54:23 51°13.635 2°56.017 20.4357 0.009811 0.054564 -3.020363
2011-07-15 03:54:28 51°13.635 2°56.017 20.4368 0.009811 0.054564 -3.020363
2011-07-15 03:54:33 51°13.635 2°56.017 20.436 0.009811 0.054564 -3.020363
2011-07-15 03:54:38 51°13.635 2°56.016 20.4362 0.009811 0.054564 -3.020363
2011-07-15 03:54:43 51°13.635 2°56.016 20.4358 0.009811 0.054564 -3.020363
2011-07-15 03:54:48 51°13.635 2°56.017 20.436 0.009811 0.054564 -3.020363
2011-07-15 03:54:53 51°13.635 2°56.017 20.4348 0.009811 0.054564 -3.020363
2011-07-15 03:54:58 51°13.635 2°56.017 20.4351 0.009811 0.054564 -3.020363
2011-07-15 03:55:03 51°13.635 2°56.017 20.4355 0.009811 0.054564 -3.020363
2011-07-15 03:55:08 51°13.635 2°56.017 20.4359 0.009811 0.054563 -3.020363
2011-07-15 03:55:13 51°13.635 2°56.017 20.4362 0.009811 0.054563 -3.020363
2011-07-15 03:55:18 51°13.635 2°56.017 20.4371 0.009811 0.054563 -3.020363
2011-07-15 03:55:23 51°13.635 2°56.017 20.4366 0.009811 0.054563 -3.020363
2011-07-15 03:55:28 51°13.635 2°56.017 20.4367 0.009811 0.054563 -3.020363
2011-07-15 03:55:33 51°13.635 2°56.016 20.4361 0.009811 0.054563 -3.020363
2011-07-15 03:55:38 51°13.635 2°56.016 20.4365 0.009811 0.054563 -3.020363
2011-07-15 03:55:43 51°13.635 2°56.017 20.4364 0.009811 0.054562 -3.020363
2011-07-15 03:55:48 51°13.635 2°56.016 20.4367 0.009811 0.054562 -3.020363
2011-07-15 03:55:54 51°13.635 2°56.016 20.4363 0.009811 0.054562 -3.020363
2011-07-15 03:55:58 51°13.635 2°56.016 20.4362 0.009811 0.054562 -3.020363
2011-07-15 03:56:03 51°13.635 2°56.016 20.4351 0.009811 0.054562 -3.020363
2011-07-15 03:56:08 51°13.635 2°56.016 20.4352 0.009811 0.054562 -3.020363
2011-07-15 03:56:13 51°13.636 2°56.017 20.4341 0.009811 0.054562 -3.020363
2011-07-15 03:56:18 51°13.636 2°56.017 20.4349 0.009811 0.054562 -3.020363
2011-07-15 03:56:23 51°13.636 2°56.017 20.4347 0.009811 0.054562 -3.020363
2011-07-15 03:56:28 51°13.636 2°56.017 20.4357 0.009811 0.054562 -3.020363
2011-07-15 03:56:33 51°13.636 2°56.017 20.4355 0.009811 0.054562 -3.020363
2011-07-15 03:56:39 51°13.636 2°56.017 20.4355 0.009811 0.054562 -3.020363
2011-07-15 03:56:43 51°13.636 2°56.016 20.4349 0.009811 0.054562 -3.020363
2011-07-15 03:56:48 51°13.636 2°56.016 20.4349 0.009811 0.054562 -3.020363
2011-07-15 03:56:54 51°13.635 2°56.016 20.4351 0.009811 0.054562 -3.020363
2011-07-15 03:56:59 51°13.635 2°56.016 20.4354 0.009811 0.054561 -3.020363
2011-07-15 03:57:03 51°13.636 2°56.016 20.4354 0.009811 0.054562 -3.020363
2011-07-15 03:57:08 51°13.636 2°56.016 20.4351 0.009811 0.054561 -3.020363
2011-07-15 03:57:13 51°13.636 2°56.016 20.4364 0.009811 0.054561 -3.020363
2011-07-15 03:57:18 51°13.636 2°56.016 20.4355 0.009811 0.054561 -3.020363
2011-07-15 03:57:23 51°13.636 2°56.016 20.4357 0.009811 0.054561 -3.020363
2011-07-15 03:57:28 51°13.636 2°56.016 20.4362 0.009811 0.054561 -3.020363
2011-07-15 03:57:33 51°13.636 2°56.016 20.4368 0.009811 0.054561 -3.020363
2011-07-15 03:57:38 51°13.636 2°56.016 20.436 0.009811 0.054561 -3.020363
2011-07-15 03:57:44 51°13.636 2°56.016 20.4362 0.009811 0.05456 -3.020363
2011-07-15 03:57:49 51°13.636 2°56.016 20.4359 0.009811 0.05456 -3.020363
2011-07-15 03:57:54 51°13.636 2°56.016 20.436 0.009811 0.05456 -3.020363
2011-07-15 03:57:59 51°13.636 2°56.016 20.4357 0.009811 0.05456 -3.020363
2011-07-15 03:58:03 51°13.636 2°56.016 20.4353 0.009811 0.05456 -3.020363
2011-07-15 03:58:09 51°13.636 2°56.016 20.4346 0.009811 0.05456 -3.020363
2011-07-15 03:58:14 51°13.636 2°56.016 20.4346 0.009811 0.05456 -3.020363
2011-07-15 03:58:19 51°13.636 2°56.015 20.4356 0.009811 0.05456 -3.020363
2011-07-15 03:58:23 51°13.636 2°56.015 20.4359 0.009811 0.05456 -3.020363
2011-07-15 03:58:28 51°13.636 2°56.015 20.4372 0.009811 0.05456 -3.020363
2011-07-15 03:58:33 51°13.635 2°56.015 20.4371 0.009811 0.05456 -3.020363
2011-07-15 03:58:38 51°13.635 2°56.015 20.4378 0.009811 0.05456 -3.020363
2011-07-15 03:58:43 51°13.635 2°56.015 20.4366 0.009811 0.05456 -3.020363
2011-07-15 03:58:48 51°13.636 2°56.015 20.4374 0.009811 0.05456 -3.020363
2011-07-15 03:58:53 51°13.636 2°56.015 20.4356 0.009811 0.05456 -3.020363
2011-07-15 03:58:58 51°13.636 2°56.015 20.4359 0.009811 0.05456 -3.020363
2011-07-15 03:59:03 51°13.636 2°56.015 20.4352 0.009811 0.054559 -3.020363
2011-07-15 03:59:08 51°13.636 2°56.015 20.4354 0.009811 0.054559 -3.020363
2011-07-15 03:59:13 51°13.636 2°56.015 20.4341 0.009811 0.054559 -3.020363
2011-07-15 03:59:18 51°13.636 2°56.015 20.4345 0.009811 0.054559 -3.020363
2011-07-15 03:59:23 51°13.636 2°56.015 20.434 0.009811 0.054559 -3.020363
2011-07-15 03:59:28 51°13.636 2°56.015 20.4325 0.009811 0.054559 -3.020363
2011-07-15 03:59:33 51°13.636 2°56.015 20.4324 0.009811 0.054558 -3.020363
2011-07-15 03:59:39 51°13.636 2°56.015 20.4323 0.009811 0.054559 -3.020363
2011-07-15 03:59:43 51°13.636 2°56.015 20.4323 0.009811 0.054559 -3.020363
2011-07-15 03:59:48 51°13.636 2°56.015 20.4327 0.009811 0.054559 -3.020363
2011-07-15 03:59:53 51°13.636 2°56.015 20.4338 0.009811 0.054558 -3.020363
2011-07-15 03:59:58 51°13.636 2°56.015 20.4331 0.009811 0.054558 -3.020363
2011-07-15 04:00:03 51°13.636 2°56.015 20.4341 0.009811 0.054558 -3.020363
2011-07-15 04:00:08 51°13.636 2°56.015 20.4334 0.009811 0.054558 -3.020363
2011-07-15 04:00:13 51°13.636 2°56.015 20.4341 0.009811 0.054558 -3.020363
2011-07-15 04:00:18 51°13.636 2°56.015 20.4341 0.009811 0.054558 -3.020363
2011-07-15 04:00:23 51°13.636 2°56.015 20.4343 0.009811 0.054558 -3.020363
2011-07-15 04:00:28 51°13.636 2°56.015 20.435 0.009811 0.054558 -3.020363
2011-07-15 04:00:33 51°13.636 2°56.015 20.4354 0.009811 0.054558 -3.020363
2011-07-15 04:00:38 51°13.636 2°56.015 20.4355 0.009811 0.054558 -3.020363
2011-07-15 04:00:43 51°13.636 2°56.015 20.4354 0.009811 0.054558 -3.020363
2011-07-15 04:00:48 51°13.636 2°56.015 20.4354 0.009811 0.054558 -3.020363
2011-07-15 04:00:53 51°13.636 2°56.015 20.4343 0.009811 0.054558 -3.020363
2011-07-15 04:00:58 51°13.636 2°56.015 20.4343 0.009811 0.054558 -3.020363
2011-07-15 04:01:03 51°13.636 2°56.016 20.4343 0.009811 0.054558 -3.020363
2011-07-15 04:01:08 51°13.636 2°56.016 20.434 0.009811 0.054558 -3.020363
2011-07-15 04:01:14 51°13.636 2°56.016 20.433 0.009811 0.054557 -3.020363
2011-07-15 04:01:19 51°13.636 2°56.016 20.4337 0.009811 0.054557 -3.020363
2011-07-15 04:01:23 51°13.636 2°56.016 20.4334 0.009811 0.054557 -3.020363
2011-07-15 04:01:28 51°13.636 2°56.016 20.4344 0.009811 0.054557 -3.020363
2011-07-15 04:01:34 51°13.636 2°56.016 20.4335 0.009811 0.054557 -3.020363
2011-07-15 04:01:38 51°13.636 2°56.016 20.4328 0.009811 0.054557 -3.020363
2011-07-15 04:01:43 51°13.636 2°56.016 20.4341 0.009811 0.054557 -3.020363
2011-07-15 04:01:49 51°13.636 2°56.016 20.4336 0.009811 0.054557 -3.020363
2011-07-15 04:01:54 51°13.636 2°56.016 20.4334 0.009811 0.054556 -3.020363
2011-07-15 04:01:58 51°13.636 2°56.016 20.4335 0.009811 0.054556 -3.020363
2011-07-15 04:02:03 51°13.636 2°56.016 20.4321 0.009811 0.054556 -3.020363
2011-07-15 04:02:09 51°13.636 2°56.015 20.432 0.009811 0.054556 -3.020363
2011-07-15 04:02:13 51°13.636 2°56.015 20.4331 0.009811 0.054556 -3.020363
2011-07-15 04:02:18 51°13.636 2°56.015 20.4332 0.009811 0.054556 -3.020363
2011-07-15 04:02:24 51°13.636 2°56.016 20.4335 0.009811 0.054556 -3.020363
2011-07-15 04:02:29 51°13.636 2°56.016 20.4344 0.009811 0.054556 -3.020363
2011-07-15 04:02:33 51°13.636 2°56.016 20.4348 0.009811 0.054556 -3.020363
2011-07-15 04:02:39 51°13.636 2°56.016 20.4359 0.009811 0.054556 -3.020363
2011-07-15 04:02:44 51°13.636 2°56.016 20.436 0.009811 0.054556 -3.020363
2011-07-15 04:02:49 51°13.636 2°56.016 20.4361 0.009811 0.054556 -3.020363
2011-07-15 04:02:54 51°13.636 2°56.016 20.436 0.009811 0.054556 -3.020363
2011-07-15 04:02:58 51°13.636 2°56.016 20.4361 0.009811 0.054556 -3.020363
2011-07-15 04:03:03 51°13.636 2°56.016 20.4339 0.009811 0.054556 -3.020363
2011-07-15 04:03:08 51°13.636 2°56.016 20.432 0.009811 0.054555 -3.020363
2011-07-15 04:03:13 51°13.637 2°56.016 20.4319 0.009811 0.054555 -3.020363
2011-07-15 04:03:18 51°13.636 2°56.016 20.4326 0.009811 0.054555 -3.020363
2011-07-15 04:03:23 51°13.637 2°56.015 20.4335 0.009811 0.054555 -3.020363
2011-07-15 04:03:28 51°13.636 2°56.015 20.4335 0.009811 0.054555 -3.020363
2011-07-15 04:03:33 51°13.637 2°56.015 20.434 0.009811 0.054555 -3.020363
2011-07-15 04:03:38 51°13.637 2°56.016 20.4334 0.009811 0.054555 -3.020363
2011-07-15 04:03:43 51°13.636 2°56.016 20.4337 0.009811 0.054555 -3.020363
2011-07-15 04:03:48 51°13.636 2°56.016 20.4339 0.009811 0.054555 -3.020363
2011-07-15 04:03:54 51°13.636 2°56.016 20.4326 0.009811 0.054555 -3.020363
2011-07-15 04:03:58 51°13.636 2°56.016 20.4338 0.009811 0.054555 -3.020363
2011-07-15 04:04:04 51°13.636 2°56.016 20.4327 0.009811 0.054555 -3.020363
2011-07-15 04:04:09 51°13.636 2°56.016 20.4336 0.009811 0.054555 -3.020363
2011-07-15 04:04:13 51°13.636 2°56.016 20.4312 0.009811 0.054555 -3.020363
2011-07-15 04:04:18 51°13.636 2°56.016 20.4303 0.009811 0.054555 -3.020363
2011-07-15 04:04:23 51°13.636 2°56.016 20.4313 0.009811 0.054555 -3.020363
2011-07-15 04:04:29 51°13.636 2°56.016 20.4325 0.009811 0.054555 -3.020363
2011-07-15 04:04:33 51°13.636 2°56.016 20.4328 0.009811 0.054554 -3.020363
2011-07-15 04:04:38 51°13.636 2°56.015 20.4332 0.009811 0.054554 -3.020363
2011-07-15 04:04:43 51°13.636 2°56.015 20.4328 0.009811 0.054554 -3.020363
2011-07-15 04:04:48 51°13.636 2°56.015 20.4324 0.009811 0.054554 -3.020363
2011-07-15 04:04:53 51°13.636 2°56.016 20.4328 0.009811 0.054554 -3.020363
2011-07-15 04:04:58 51°13.637 2°56.016 20.433 0.009811 0.054554 -3.020363
2011-07-15 04:05:03 51°13.637 2°56.016 20.4338 0.009811 0.054554 -3.020363
2011-07-15 04:05:08 51°13.637 2°56.016 20.4338 0.009811 0.054554 -3.020363
2011-07-15 04:05:13 51°13.637 2°56.016 20.4315 0.009811 0.054554 -3.020363
2011-07-15 04:05:19 51°13.637 2°56.016 20.4328 0.009811 0.054554 -3.020363
2011-07-15 04:05:23 51°13.637 2°56.015 20.432 0.009811 0.054553 -3.020363
2011-07-15 04:05:28 51°13.637 2°56.015 20.4334 0.009811 0.054553 -3.020363
2011-07-15 04:05:33 51°13.637 2°56.015 20.4325 0.009811 0.054553 -3.020363
2011-07-15 04:05:38 51°13.637 2°56.015 20.4339 0.009811 0.054553 -3.020363
2011-07-15 04:05:43 51°13.637 2°56.015 20.4329 0.009811 0.054553 -3.020363
2011-07-15 04:05:48 51°13.637 2°56.015 20.4336 0.009811 0.054553 -3.020363
2011-07-15 04:05:53 51°13.636 2°56.015 20.4333 0.009811 0.054553 -3.020363
2011-07-15 04:05:58 51°13.636 2°56.016 20.4345 0.009811 0.054553 -3.020363
2011-07-15 04:06:03 51°13.636 2°56.016 20.434 0.009811 0.054553 -3.020363
2011-07-15 04:06:08 51°13.636 2°56.016 20.4343 0.009811 0.054553 -3.020363
2011-07-15 04:06:13 51°13.636 2°56.016 20.4331 0.009811 0.054553 -3.020363
2011-07-15 04:06:18 51°13.636 2°56.016 20.4332 0.009811 0.054553 -3.020363
2011-07-15 04:06:23 51°13.636 2°56.016 20.4323 0.009811 0.054553 -3.020363
2011-07-15 04:06:28 51°13.636 2°56.016 20.4337 0.009811 0.054553 -3.020363
2011-07-15 04:06:33 51°13.636 2°56.016 20.4336 0.009811 0.054553 -3.020363
2011-07-15 04:06:39 51°13.637 2°56.016 20.4343 0.009811 0.054552 -3.020363
2011-07-15 04:06:44 51°13.637 2°56.016 20.4337 0.009811 0.054552 -3.020363
2011-07-15 04:06:48 51°13.637 2°56.016 20.4349 0.009811 0.054552 -3.020363
2011-07-15 04:06:53 51°13.637 2°56.016 20.4343 0.009811 0.054552 -3.020363
2011-07-15 04:06:58 51°13.636 2°56.016 20.4351 0.009811 0.054552 -3.020363
2011-07-15 04:07:03 51°13.636 2°56.016 20.4333 0.009811 0.054552 -3.020363
2011-07-15 04:07:08 51°13.636 2°56.016 20.4335 0.009811 0.054552 -3.020363
2011-07-15 04:07:13 51°13.636 2°56.016 20.4327 0.009811 0.054552 -3.020363
2011-07-15 04:07:18 51°13.636 2°56.016 20.4337 0.009811 0.054552 -3.020363
2011-07-15 04:07:23 51°13.636 2°56.016 20.4315 0.009811 0.054552 -3.020363
2011-07-15 04:07:28 51°13.636 2°56.016 20.4313 0.009811 0.054551 -3.020363
2011-07-15 04:07:33 51°13.636 2°56.016 20.4293 0.009811 0.054551 -3.020363
2011-07-15 04:07:38 51°13.636 2°56.016 20.4305 0.009811 0.054551 -3.020363
2011-07-15 04:07:43 51°13.636 2°56.016 20.4305 0.009811 0.054551 -3.020363
2011-07-15 04:07:48 51°13.636 2°56.016 20.4313 0.009811 0.054551 -3.020363
2011-07-15 04:07:53 51°13.636 2°56.016 20.4308 0.009811 0.054551 -3.020363
2011-07-15 04:07:58 51°13.636 2°56.016 20.4305 0.009811 0.054551 -3.020363
2011-07-15 04:08:03 51°13.636 2°56.016 20.4296 0.009811 0.054551 -3.020363
2011-07-15 04:08:08 51°13.636 2°56.016 20.4302 0.009811 0.054551 -3.020363
2011-07-15 04:08:13 51°13.636 2°56.016 20.4311 0.009811 0.054551 -3.020363
2011-07-15 04:08:18 51°13.636 2°56.015 20.4318 0.009811 0.054551 -3.020363
2011-07-15 04:08:24 51°13.636 2°56.016 20.432 0.009811 0.054551 -3.020363
2011-07-15 04:08:29 51°13.636 2°56.015 20.4329 0.009811 0.054551 -3.020363
2011-07-15 04:08:33 51°13.636 2°56.015 20.434 0.009811 0.054551 -3.020363
2011-07-15 04:08:39 51°13.636 2°56.015 20.4339 0.009811 0.054551 -3.020363
2011-07-15 04:08:43 51°13.636 2°56.015 20.4347 0.009811 0.054551 -3.020363
2011-07-15 04:08:48 51°13.636 2°56.015 20.4338 0.009811 0.054551 -3.020363
2011-07-15 04:08:53 51°13.636 2°56.015 20.4346 0.009811 0.054551 -3.020363
2011-07-15 04:08:58 51°13.636 2°56.015 20.4338 0.009811 0.054551 -3.020363
2011-07-15 04:09:03 51°13.636 2°56.015 20.4348 0.009811 0.05455 -3.020363
2011-07-15 04:09:08 51°13.636 2°56.015 20.4346 0.009811 0.05455 -3.020363
2011-07-15 04:09:13 51°13.636 2°56.015 20.4352 0.009811 0.05455 -3.020363
2011-07-15 04:09:18 51°13.636 2°56.015 20.4359 0.009811 0.05455 -3.020363
2011-07-15 04:09:23 51°13.636 2°56.015 20.4347 0.009811 0.05455 -3.020363
2011-07-15 04:09:28 51°13.636 2°56.015 20.4348 0.009811 0.05455 -3.020363
2011-07-15 04:09:34 51°13.636 2°56.015 20.4348 0.009811 0.05455 -3.020363
2011-07-15 04:09:39 51°13.636 2°56.015 20.4343 0.009811 0.05455 -3.020363
2011-07-15 04:09:43 51°13.636 2°56.015 20.4328 0.009811 0.05455 -3.020363
2011-07-15 04:09:48 51°13.636 2°56.015 20.433 0.009811 0.05455 -3.020363
2011-07-15 04:09:53 51°13.636 2°56.015 20.4303 0.009811 0.054549 -3.020363
2011-07-15 04:09:58 51°13.636 2°56.015 20.4309 0.009811 0.054549 -3.020363
2011-07-15 04:10:03 51°13.636 2°56.015 20.4313 0.009811 0.054549 -3.020363
2011-07-15 04:10:08 51°13.636 2°56.015 20.4324 0.009811 0.054549 -3.020363
2011-07-15 04:10:13 51°13.636 2°56.015 20.4325 0.009811 0.054549 -3.020363
2011-07-15 04:10:18 51°13.636 2°56.015 20.4341 0.009811 0.054549 -3.020363
2011-07-15 04:10:23 51°13.636 2°56.015 20.4333 0.009811 0.054549 -3.020363
2011-07-15 04:10:28 51°13.636 2°56.015 20.4341 0.009811 0.054549 -3.020363
2011-07-15 04:10:33 51°13.636 2°56.015 20.4333 0.009811 0.054549 -3.020363
2011-07-15 04:10:38 51°13.636 2°56.015 20.4348 0.009811 0.054549 -3.020363
2011-07-15 04:10:44 51°13.636 2°56.015 20.4341 0.009811 0.054549 -3.020363
2011-07-15 04:10:48 51°13.636 2°56.015 20.435 0.009811 0.054549 -3.020363
2011-07-15 04:10:53 51°13.636 2°56.015 20.4342 0.009811 0.054549 -3.020363
2011-07-15 04:10:58 51°13.636 2°56.015 20.4347 0.009811 0.054549 -3.020363
2011-07-15 04:11:03 51°13.636 2°56.016 20.4338 0.009811 0.054549 -3.020363
2011-07-15 04:11:08 51°13.636 2°56.016 20.4348 0.009811 0.054549 -3.020363
2011-07-15 04:11:13 51°13.636 2°56.016 20.4341 0.009811 0.054549 -3.020363
2011-07-15 04:11:18 51°13.636 2°56.016 20.4341 0.009811 0.054549 -3.020363
2011-07-15 04:11:23 51°13.636 2°56.016 20.4334 0.009811 0.054549 -3.020363
2011-07-15 04:11:28 51°13.636 2°56.016 20.4341 0.009811 0.054548 -3.020363
2011-07-15 04:11:33 51°13.636 2°56.016 20.4334 0.009811 0.054548 -3.020363
2011-07-15 04:11:38 51°13.636 2°56.016 20.4336 0.009811 0.054548 -3.020363
2011-07-15 04:11:43 51°13.636 2°56.016 20.4332 0.009811 0.054548 -3.020363
2011-07-15 04:11:48 51°13.636 2°56.016 20.4336 0.009811 0.054548 -3.020363
2011-07-15 04:11:53 51°13.636 2°56.016 20.4338 0.009811 0.054548 -3.020363
2011-07-15 04:11:58 51°13.636 2°56.016 20.4341 0.009811 0.054548 -3.020363
2011-07-15 04:12:03 51°13.637 2°56.016 20.4336 0.009811 0.054548 -3.020363
2011-07-15 04:12:08 51°13.637 2°56.016 20.4333 0.009811 0.054548 -3.020363
2011-07-15 04:12:13 51°13.637 2°56.016 20.4334 0.009811 0.054547 -3.020363
2011-07-15 04:12:18 51°13.637 2°56.016 20.433 0.009811 0.054547 -3.020363
2011-07-15 04:12:23 51°13.637 2°56.016 20.4334 0.009811 0.054547 -3.020363
2011-07-15 04:12:28 51°13.637 2°56.016 20.4326 0.009811 0.054547 -3.020363
2011-07-15 04:12:33 51°13.636 2°56.016 20.4326 0.009811 0.054547 -3.020363
2011-07-15 04:12:38 51°13.637 2°56.017 20.4316 0.009811 0.054547 -3.020363
2011-07-15 04:12:44 51°13.636 2°56.017 20.4327 0.009811 0.054547 -3.020363
2011-07-15 04:12:49 51°13.637 2°56.016 20.4324 0.009811 0.054547 -3.020363
2011-07-15 04:12:54 51°13.637 2°56.016 20.4325 0.009811 0.054547 -3.020363
2011-07-15 04:12:58 51°13.637 2°56.016 20.4325 0.009811 0.054547 -3.020363
2011-07-15 04:13:03 51°13.637 2°56.017 20.4333 0.009811 0.054547 -3.020363
2011-07-15 04:13:08 51°13.637 2°56.017 20.4323 0.009811 0.054547 -3.020363
2011-07-15 04:13:13 51°13.637 2°56.017 20.4341 0.009811 0.054547 -3.020363
2011-07-15 04:13:18 51°13.637 2°56.017 20.434 0.009811 0.054547 -3.020363
2011-07-15 04:13:23 51°13.637 2°56.017 20.4347 0.009811 0.054547 -3.020363
2011-07-15 04:13:28 51°13.636 2°56.017 20.4333 0.009811 0.054547 -3.020363
2011-07-15 04:13:34 51°13.636 2°56.017 20.4329 0.009811 0.054547 -3.020363
2011-07-15 04:13:39 51°13.636 2°56.017 20.4333 0.009811 0.054546 -3.020363
2011-07-15 04:13:44 51°13.636 2°56.017 20.4335 0.009811 0.054546 -3.020363
2011-07-15 04:13:49 51°13.636 2°56.017 20.4329 0.009811 0.054546 -3.020363
2011-07-15 04:13:54 51°13.636 2°56.017 20.4336 0.009811 0.054546 -3.020363
2011-07-15 04:13:59 51°13.636 2°56.017 20.4322 0.009811 0.054546 -3.020363
2011-07-15 04:14:04 51°13.636 2°56.017 20.4334 0.009811 0.054546 -3.020363
2011-07-15 04:14:08 51°13.636 2°56.017 20.4332 0.009811 0.054546 -3.020363
2011-07-15 04:14:13 51°13.636 2°56.017 20.4334 0.009811 0.054546 -3.020363
2011-07-15 04:14:18 51°13.637 2°56.017 20.4328 0.009811 0.054546 -3.020363
2011-07-15 04:14:23 51°13.637 2°56.017 20.4333 0.009811 0.054545 -3.020363
2011-07-15 04:14:28 51°13.636 2°56.017 20.4325 0.009811 0.054546 -3.020363
2011-07-15 04:14:33 51°13.636 2°56.017 20.4313 0.009811 0.054545 -3.020363
2011-07-15 04:14:38 51°13.637 2°56.017 20.4302 0.009811 0.054545 -3.020363
2011-07-15 04:14:43 51°13.637 2°56.017 20.4312 0.009811 0.054545 -3.020363
2011-07-15 04:14:48 51°13.637 2°56.017 20.431 0.009811 0.054545 -3.020363
2011-07-15 04:14:53 51°13.637 2°56.017 20.4321 0.009811 0.054545 -3.020363
2011-07-15 04:14:58 51°13.637 2°56.017 20.4319 0.009811 0.054545 -3.020363
2011-07-15 04:15:04 51°13.637 2°56.017 20.4327 0.009811 0.054545 -3.020363
2011-07-15 04:15:08 51°13.637 2°56.017 20.4319 0.009811 0.054545 -3.020363
2011-07-15 04:15:13 51°13.637 2°56.017 20.4322 0.009811 0.054545 -3.020363
2011-07-15 04:15:18 51°13.637 2°56.017 20.4318 0.009811 0.054545 -3.020363
2011-07-15 04:15:23 51°13.637 2°56.017 20.4318 0.009811 0.054545 -3.020363
2011-07-15 04:15:28 51°13.637 2°56.017 20.4302 0.009811 0.054545 -3.020363
2011-07-15 04:15:33 51°13.637 2°56.017 20.4318 0.009811 0.054545 -3.020363
2011-07-15 04:15:38 51°13.637 2°56.017 20.4314 0.009811 0.054545 -3.020363
2011-07-15 04:15:44 51°13.637 2°56.017 20.4306 0.009811 0.054545 -3.020363
2011-07-15 04:15:49 51°13.637 2°56.017 20.4293 0.009811 0.054545 -3.020363
2011-07-15 04:15:53 51°13.637 2°56.017 20.4289 0.009811 0.054545 -3.020363
2011-07-15 04:15:58 51°13.636 2°56.017 20.4292 0.009811 0.054545 -3.020363
2011-07-15 04:16:04 51°13.636 2°56.017 20.4299 0.009811 0.054545 -3.020363
2011-07-15 04:16:09 51°13.636 2°56.017 20.4305 0.009811 0.054545 -3.020363
2011-07-15 04:16:13 51°13.636 2°56.017 20.4301 0.009811 0.054544 -3.020363
2011-07-15 04:16:18 51°13.636 2°56.017 20.4302 0.009811 0.054544 -3.020363
2011-07-15 04:16:23 51°13.636 2°56.017 20.4305 0.009811 0.054544 -3.020363
2011-07-15 04:16:28 51°13.636 2°56.017 20.4308 0.009811 0.054544 -3.020363
2011-07-15 04:16:33 51°13.636 2°56.017 20.4305 0.009811 0.054544 -3.020363
2011-07-15 04:16:38 51°13.636 2°56.018 20.4303 0.009811 0.054544 -3.020363
2011-07-15 04:16:43 51°13.636 2°56.018 20.43 0.009811 0.054544 -3.020363
2011-07-15 04:16:48 51°13.636 2°56.018 20.429 0.009811 0.054544 -3.020363
2011-07-15 04:16:53 51°13.636 2°56.018 20.4287 0.009811 0.054544 -3.020363
2011-07-15 04:16:58 51°13.636 2°56.018 20.4301 0.009811 0.054544 -3.020363
2011-07-15 04:17:03 51°13.636 2°56.018 20.4297 0.009811 0.054544 -3.020363
2011-07-15 04:17:08 51°13.636 2°56.018 20.4312 0.009811 0.054543 -3.020363
2011-07-15 04:17:13 51°13.636 2°56.018 20.43 0.009811 0.054543 -3.020363
2011-07-15 04:17:18 51°13.636 2°56.018 20.4305 0.009811 0.054543 -3.020363
2011-07-15 04:17:23 51°13.636 2°56.018 20.4304 0.009811 0.054543 -3.020363
2011-07-15 04:17:28 51°13.636 2°56.018 20.4315 0.009811 0.054543 -3.020363
2011-07-15 04:17:34 51°13.636 2°56.018 20.4309 0.009811 0.054543 -3.020363
2011-07-15 04:17:39 51°13.636 2°56.018 20.4313 0.009811 0.054543 -3.020363
2011-07-15 04:17:44 51°13.636 2°56.019 20.4306 0.009811 0.054543 -3.020363
2011-07-15 04:17:48 51°13.636 2°56.019 20.4299 0.009811 0.054543 -3.020363
2011-07-15 04:17:53 51°13.636 2°56.019 20.4297 0.009811 0.054543 -3.020363
2011-07-15 04:17:59 51°13.636 2°56.019 20.4266 0.009811 0.054543 -3.020363
2011-07-15 04:18:04 51°13.636 2°56.019 20.4287 0.009811 0.054543 -3.020363
2011-07-15 04:18:08 51°13.636 2°56.019 20.4275 0.009811 0.054543 -3.020363
2011-07-15 04:18:13 51°13.636 2°56.019 20.4291 0.009811 0.054543 -3.020363
2011-07-15 04:18:19 51°13.637 2°56.019 20.4277 0.009811 0.054543 -3.020363
2011-07-15 04:18:23 51°13.637 2°56.019 20.429 0.009811 0.054543 -3.020363
2011-07-15 04:18:28 51°13.637 2°56.019 20.4289 0.009811 0.054543 -3.020363
2011-07-15 04:18:34 51°13.637 2°56.019 20.4304 0.009811 0.054543 -3.020363
2011-07-15 04:18:39 51°13.637 2°56.019 20.4304 0.009811 0.054543 -3.020363
2011-07-15 04:18:43 51°13.637 2°56.019 20.4306 0.009811 0.054543 -3.020363
2011-07-15 04:18:49 51°13.637 2°56.019 20.4297 0.009811 0.054543 -3.020363
2011-07-15 04:18:54 51°13.637 2°56.019 20.4294 0.009811 0.054543 -3.020363
2011-07-15 04:18:59 51°13.637 2°56.019 20.4293 0.009811 0.054542 -3.020363
2011-07-15 04:19:03 51°13.637 2°56.019 20.4289 0.009811 0.054542 -3.020363
2011-07-15 04:19:08 51°13.637 2°56.02 20.4294 0.009811 0.054542 -3.020363
2011-07-15 04:19:13 51°13.637 2°56.02 20.4293 0.009811 0.054542 -3.020363
2011-07-15 04:19:18 51°13.637 2°56.02 20.4297 0.009811 0.054542 -3.020363
2011-07-15 04:19:23 51°13.637 2°56.02 20.4285 0.009811 0.054542 -3.020363
2011-07-15 04:19:28 51°13.637 2°56.02 20.4283 0.009811 0.054542 -3.020363
2011-07-15 04:19:33 51°13.637 2°56.02 20.4292 0.009811 0.054542 -3.020363
2011-07-15 04:19:38 51°13.637 2°56.02 20.429 0.009811 0.054542 -3.020363
2011-07-15 04:19:43 51°13.637 2°56.02 20.4279 0.009811 0.054542 -3.020363
2011-07-15 04:19:48 51°13.637 2°56.02 20.4299 0.009811 0.054542 -3.020363
2011-07-15 04:19:53 51°13.637 2°56.02 20.429 0.009811 0.054541 -3.020363
2011-07-15 04:19:58 51°13.637 2°56.02 20.4297 0.009811 0.054541 -3.020363
2011-07-15 04:20:03 51°13.637 2°56.02 20.429 0.009811 0.054541 -3.020363
2011-07-15 04:20:08 51°13.637 2°56.02 20.4277 0.009811 0.054541 -3.020363
2011-07-15 04:20:13 51°13.637 2°56.02 20.4283 0.009811 0.054541 -3.020363
2011-07-15 04:20:18 51°13.637 2°56.02 20.4286 0.009811 0.054541 -3.020363
2011-07-15 04:20:23 51°13.637 2°56.02 20.4296 0.009811 0.054541 -3.020363
2011-07-15 04:20:28 51°13.637 2°56.02 20.4294 0.009811 0.054541 -3.020363
2011-07-15 04:20:33 51°13.637 2°56.02 20.4298 0.009811 0.054541 -3.020363
2011-07-15 04:20:38 51°13.637 2°56.02 20.4287 0.009811 0.054541 -3.020363
2011-07-15 04:20:44 51°13.637 2°56.02 20.43 0.009811 0.054541 -3.020363
2011-07-15 04:20:49 51°13.637 2°56.02 20.4289 0.009811 0.054541 -3.020363
2011-07-15 04:20:54 51°13.637 2°56.02 20.4295 0.009811 0.054541 -3.020363
2011-07-15 04:20:59 51°13.637 2°56.02 20.4294 0.009811 0.054541 -3.020363
2011-07-15 04:21:04 51°13.637 2°56.02 20.4288 0.009811 0.054541 -3.020363
2011-07-15 04:21:09 51°13.637 2°56.02 20.4292 0.009811 0.054541 -3.020363
2011-07-15 04:21:13 51°13.637 2°56.02 20.4293 0.009811 0.054541 -3.020363
2011-07-15 04:21:19 51°13.636 2°56.02 20.4293 0.009811 0.054541 -3.020363
2011-07-15 04:21:24 51°13.637 2°56.02 20.4289 0.009811 0.054541 -3.020363
2011-07-15 04:21:29 51°13.637 2°56.019 20.429 0.009811 0.05454 -3.020363
2011-07-15 04:21:33 51°13.637 2°56.019 20.4293 0.009811 0.054541 -3.020363
2011-07-15 04:21:38 51°13.637 2°56.019 20.4292 0.009811 0.05454 -3.020363
2011-07-15 04:21:44 51°13.637 2°56.019 20.4291 0.009811 0.05454 -3.020363
2011-07-15 04:21:49 51°13.636 2°56.019 20.4292 0.009811 0.05454 -3.020363
2011-07-15 04:21:54 51°13.637 2°56.019 20.4295 0.009811 0.054541 -3.020363
2011-07-15 04:21:58 51°13.636 2°56.019 20.43 0.009811 0.05454 -3.020363
2011-07-15 04:22:04 51°13.636 2°56.019 20.43 0.009811 0.05454 -3.020363
2011-07-15 04:22:08 51°13.636 2°56.019 20.4302 0.009811 0.05454 -3.020363
2011-07-15 04:22:14 51°13.636 2°56.019 20.4303 0.009811 0.05454 -3.020363
2011-07-15 04:22:19 51°13.636 2°56.019 20.4304 0.009811 0.05454 -3.020363
2011-07-15 04:22:23 51°13.636 2°56.019 20.4304 0.009811 0.054539 -3.020363
2011-07-15 04:22:28 51°13.636 2°56.019 20.4301 0.009811 0.054539 -3.020363
2011-07-15 04:22:33 51°13.636 2°56.019 20.4301 0.009811 0.05454 -3.020363
2011-07-15 04:22:39 51°13.636 2°56.019 20.4301 0.009811 0.054539 -3.020363
2011-07-15 04:22:43 51°13.636 2°56.019 20.4303 0.009811 0.054539 -3.020363
2011-07-15 04:22:48 51°13.636 2°56.019 20.4305 0.009811 0.054539 -3.020363
2011-07-15 04:22:53 51°13.636 2°56.019 20.4306 0.009811 0.054539 -3.020363
2011-07-15 04:22:58 51°13.636 2°56.019 20.4307 0.009811 0.054539 -3.020363
2011-07-15 04:23:03 51°13.636 2°56.019 20.4305 0.009811 0.054539 -3.020363
2011-07-15 04:23:08 51°13.636 2°56.019 20.4297 0.009811 0.054539 -3.020363
2011-07-15 04:23:13 51°13.636 2°56.019 20.4285 0.009811 0.054539 -3.020363
2011-07-15 04:23:18 51°13.636 2°56.019 20.4288 0.009811 0.054539 -3.020363
2011-07-15 04:23:23 51°13.636 2°56.019 20.4281 0.009811 0.054539 -3.020363
2011-07-15 04:23:28 51°13.636 2°56.019 20.4274 0.009811 0.054539 -3.020363
2011-07-15 04:23:33 51°13.636 2°56.019 20.428 0.009811 0.054539 -3.020363
2011-07-15 04:23:38 51°13.636 2°56.019 20.428 0.009811 0.054539 -3.020363
2011-07-15 04:23:43 51°13.636 2°56.019 20.4285 0.009811 0.054539 -3.020363
2011-07-15 04:23:48 51°13.636 2°56.019 20.4281 0.009811 0.054539 -3.020363
2011-07-15 04:23:53 51°13.636 2°56.019 20.4286 0.009811 0.054539 -3.020363
2011-07-15 04:23:59 51°13.636 2°56.019 20.4278 0.009811 0.054539 -3.020363
2011-07-15 04:24:04 51°13.636 2°56.019 20.4282 0.009811 0.054539 -3.020363
2011-07-15 04:24:09 51°13.636 2°56.019 20.4275 0.009811 0.054539 -3.020363
2011-07-15 04:24:14 51°13.636 2°56.019 20.4268 0.009811 0.054539 -3.020363
2011-07-15 04:24:19 51°13.636 2°56.019 20.4276 0.009811 0.054539 -3.020363
2011-07-15 04:24:23 51°13.636 2°56.018 20.4272 0.009811 0.054539 -3.020363
2011-07-15 04:24:28 51°13.636 2°56.018 20.4283 0.009811 0.054538 -3.020363
2011-07-15 04:24:34 51°13.636 2°56.018 20.4276 0.009811 0.054538 -3.020363
2011-07-15 04:24:38 51°13.636 2°56.018 20.4284 0.009811 0.054539 -3.020363
2011-07-15 04:24:43 51°13.636 2°56.018 20.4268 0.009811 0.054538 -3.020363
2011-07-15 04:24:48 51°13.636 2°56.018 20.4258 0.009811 0.054538 -3.020363
2011-07-15 04:24:54 51°13.636 2°56.018 20.4272 0.009811 0.054538 -3.020363
2011-07-15 04:24:58 51°13.636 2°56.018 20.4281 0.009811 0.054538 -3.020363
2011-07-15 04:25:03 51°13.636 2°56.018 20.4285 0.009811 0.054538 -3.020363
2011-07-15 04:25:08 51°13.636 2°56.018 20.4288 0.009811 0.054538 -3.020363
2011-07-15 04:25:13 51°13.636 2°56.018 20.4287 0.009811 0.054538 -3.020363
2011-07-15 04:25:18 51°13.636 2°56.018 20.4292 0.009811 0.054538 -3.020363
2011-07-15 04:25:23 51°13.636 2°56.018 20.4283 0.009811 0.054538 -3.020363
2011-07-15 04:25:28 51°13.636 2°56.018 20.4279 0.009811 0.054538 -3.020363
2011-07-15 04:25:33 51°13.636 2°56.018 20.4259 0.009811 0.054538 -3.020363
2011-07-15 04:25:38 51°13.636 2°56.018 20.4269 0.009811 0.054538 -3.020363
2011-07-15 04:25:43 51°13.636 2°56.018 20.4261 0.009811 0.054538 -3.020363
2011-07-15 04:25:49 51°13.636 2°56.018 20.4274 0.009811 0.054538 -3.020363
2011-07-15 04:25:54 51°13.636 2°56.018 20.4267 0.009811 0.054538 -3.020363
2011-07-15 04:25:59 51°13.636 2°56.018 20.428 0.009811 0.054538 -3.020363
2011-07-15 04:26:04 51°13.636 2°56.018 20.4275 0.009811 0.054538 -3.020363
2011-07-15 04:26:09 51°13.636 2°56.017 20.4283 0.009811 0.054538 -3.020363
2011-07-15 04:26:14 51°13.636 2°56.017 20.428 0.009811 0.054538 -3.020363
2011-07-15 04:26:19 51°13.636 2°56.017 20.4282 0.009811 0.054538 -3.020363
2011-07-15 04:26:24 51°13.636 2°56.017 20.4279 0.009811 0.054537 -3.020363
2011-07-15 04:26:29 51°13.636 2°56.017 20.4287 0.009811 0.054537 -3.020363
2011-07-15 04:26:34 51°13.636 2°56.017 20.4284 0.009811 0.054537 -3.020363
2011-07-15 04:26:39 51°13.636 2°56.017 20.4284 0.009811 0.054537 -3.020363
2011-07-15 04:26:44 51°13.636 2°56.017 20.4287 0.009811 0.054537 -3.020363
2011-07-15 04:26:49 51°13.636 2°56.017 20.4294 0.009811 0.054537 -3.020363
2011-07-15 04:26:53 51°13.636 2°56.017 20.4285 0.009811 0.054537 -3.020363
2011-07-15 04:26:58 51°13.636 2°56.017 20.4288 0.009811 0.054537 -3.020363
2011-07-15 04:27:03 51°13.636 2°56.016 20.4288 0.009811 0.054537 -3.020363
2011-07-15 04:27:08 51°13.636 2°56.016 20.429 0.009811 0.054537 -3.020363
2011-07-15 04:27:13 51°13.636 2°56.016 20.4273 0.009811 0.054537 -3.020363
2011-07-15 04:27:18 51°13.636 2°56.016 20.4275 0.009811 0.054537 -3.020363
2011-07-15 04:27:23 51°13.636 2°56.016 20.4286 0.009811 0.054537 -3.020363
2011-07-15 04:27:28 51°13.636 2°56.016 20.4285 0.009811 0.054537 -3.020363
2011-07-15 04:27:33 51°13.636 2°56.016 20.4285 0.009811 0.054537 -3.020363
2011-07-15 04:27:38 51°13.636 2°56.016 20.428 0.009811 0.054537 -3.020363
2011-07-15 04:27:43 51°13.636 2°56.016 20.4269 0.009811 0.054536 -3.020363
2011-07-15 04:27:48 51°13.636 2°56.016 20.4275 0.009811 0.054536 -3.020363
2011-07-15 04:27:53 51°13.636 2°56.016 20.4272 0.009811 0.054536 -3.020363
2011-07-15 04:27:58 51°13.636 2°56.016 20.4276 0.009811 0.054536 -3.020363
2011-07-15 04:28:03 51°13.636 2°56.016 20.4273 0.009811 0.054536 -3.020363
2011-07-15 04:28:08 51°13.636 2°56.016 20.4258 0.009811 0.054536 -3.020363
2011-07-15 04:28:13 51°13.636 2°56.016 20.4269 0.009811 0.054536 -3.020363
2011-07-15 04:28:18 51°13.636 2°56.016 20.4265 0.009811 0.054536 -3.020363
2011-07-15 04:28:23 51°13.636 2°56.016 20.4275 0.009811 0.054536 -3.020363
2011-07-15 04:28:28 51°13.636 2°56.016 20.427 0.009811 0.054536 -3.020363
2011-07-15 04:28:33 51°13.636 2°56.016 20.4274 0.009811 0.054536 -3.020363
2011-07-15 04:28:38 51°13.636 2°56.016 20.4268 0.009811 0.054536 -3.020363
2011-07-15 04:28:43 51°13.636 2°56.017 20.4272 0.009811 0.054536 -3.020363
2011-07-15 04:28:48 51°13.636 2°56.017 20.4247 0.009811 0.054536 -3.020363
2011-07-15 04:28:53 51°13.636 2°56.016 20.4247 0.009811 0.054536 -3.020363
2011-07-15 04:28:58 51°13.636 2°56.017 20.4256 0.009811 0.054536 -3.020363
2011-07-15 04:29:03 51°13.636 2°56.016 20.4251 0.009811 0.054536 -3.020363
2011-07-15 04:29:08 51°13.636 2°56.016 20.425 0.009811 0.054536 -3.020363
2011-07-15 04:29:14 51°13.636 2°56.016 20.4256 0.009811 0.054536 -3.020363
2011-07-15 04:29:19 51°13.636 2°56.017 20.4254 0.009811 0.054536 -3.020363
2011-07-15 04:29:24 51°13.636 2°56.016 20.4249 0.009811 0.054536 -3.020363
2011-07-15 04:29:29 51°13.636 2°56.017 20.4255 0.009811 0.054535 -3.020363
2011-07-15 04:29:34 51°13.636 2°56.017 20.4269 0.009811 0.054536 -3.020363
2011-07-15 04:29:39 51°13.636 2°56.017 20.4272 0.009811 0.054535 -3.020363
2011-07-15 04:29:44 51°13.636 2°56.017 20.4261 0.009811 0.054535 -3.020363
2011-07-15 04:29:48 51°13.636 2°56.017 20.4273 0.009811 0.054535 -3.020363
2011-07-15 04:29:54 51°13.636 2°56.017 20.4274 0.009811 0.054535 -3.020363
2011-07-15 04:29:59 51°13.636 2°56.017 20.4264 0.009811 0.054535 -3.020363
2011-07-15 04:30:03 51°13.636 2°56.017 20.4242 0.009811 0.054535 -3.020363
2011-07-15 04:30:08 51°13.636 2°56.018 20.4245 0.009811 0.054535 -3.020363
2011-07-15 04:30:13 51°13.636 2°56.017 20.4246 0.009811 0.054535 -3.020363
2011-07-15 04:30:18 51°13.636 2°56.017 20.423 0.009811 0.054535 -3.020363
2011-07-15 04:30:23 51°13.636 2°56.017 20.4205 0.009811 0.054535 -3.020363
2011-07-15 04:30:29 51°13.636 2°56.017 20.4213 0.009811 0.054535 -3.020363
2011-07-15 04:30:33 51°13.636 2°56.017 20.421 0.009811 0.054535 -3.020363
2011-07-15 04:30:38 51°13.636 2°56.017 20.4219 0.009811 0.054535 -3.020363
2011-07-15 04:30:43 51°13.636 2°56.017 20.4221 0.009811 0.054534 -3.020363
2011-07-15 04:30:48 51°13.636 2°56.017 20.4234 0.009811 0.054534 -3.020363
2011-07-15 04:30:53 51°13.636 2°56.017 20.4228 0.009811 0.054534 -3.020363
2011-07-15 04:30:58 51°13.636 2°56.017 20.4246 0.009811 0.054534 -3.020363
2011-07-15 04:31:03 51°13.636 2°56.017 20.4232 0.009811 0.054534 -3.020363
2011-07-15 04:31:08 51°13.636 2°56.017 20.4244 0.009811 0.054534 -3.020363
2011-07-15 04:31:13 51°13.636 2°56.017 20.4225 0.009811 0.054534 -3.020363
2011-07-15 04:31:18 51°13.636 2°56.017 20.4228 0.009811 0.054534 -3.020363
2011-07-15 04:31:23 51°13.636 2°56.017 20.4207 0.009811 0.054534 -3.020363
2011-07-15 04:31:28 51°13.636 2°56.017 20.4213 0.009811 0.054534 -3.020363
2011-07-15 04:31:33 51°13.636 2°56.017 20.4198 0.009811 0.054534 -3.020363
2011-07-15 04:31:38 51°13.636 2°56.017 20.4215 0.009811 0.054534 -3.020363
2011-07-15 04:31:43 51°13.636 2°56.017 20.4216 0.009811 0.054534 -3.020363
2011-07-15 04:31:48 51°13.636 2°56.017 20.4232 0.009811 0.054534 -3.020363
2011-07-15 04:31:53 51°13.636 2°56.017 20.4228 0.009811 0.054534 -3.020363
2011-07-15 04:31:58 51°13.636 2°56.017 20.4252 0.009811 0.054534 -3.020363
2011-07-15 04:32:03 51°13.636 2°56.017 20.424 0.009811 0.054534 -3.020363
2011-07-15 04:32:08 51°13.636 2°56.017 20.4264 0.009811 0.054534 -3.020363
2011-07-15 04:32:13 51°13.636 2°56.017 20.4254 0.009811 0.054534 -3.020363
2011-07-15 04:32:18 51°13.636 2°56.017 20.4269 0.009811 0.054534 -3.020363
2011-07-15 04:32:23 51°13.636 2°56.017 20.4274 0.009811 0.054534 -3.020363
2011-07-15 04:32:28 51°13.636 2°56.017 20.4283 0.009811 0.054534 -3.020363
2011-07-15 04:32:33 51°13.636 2°56.017 20.43 0.009811 0.054534 -3.020363
2011-07-15 04:32:38 51°13.636 2°56.017 20.4294 0.009811 0.054534 -3.020363
2011-07-15 04:32:43 51°13.636 2°56.017 20.4299 0.009811 0.054534 -3.020363
2011-07-15 04:32:48 51°13.636 2°56.017 20.4299 0.009811 0.054534 -3.020363
2011-07-15 04:32:53 51°13.636 2°56.017 20.4298 0.009811 0.054533 -3.020363
2011-07-15 04:32:58 51°13.636 2°56.017 20.4292 0.009811 0.054534 -3.020363
2011-07-15 04:33:03 51°13.636 2°56.017 20.4291 0.009811 0.054534 -3.020363
2011-07-15 04:33:08 51°13.636 2°56.017 20.4283 0.009811 0.054534 -3.020363
2011-07-15 04:33:14 51°13.636 2°56.017 20.4287 0.009811 0.054533 -3.020363
2011-07-15 04:33:19 51°13.636 2°56.017 20.4277 0.009811 0.054533 -3.020363
2011-07-15 04:33:24 51°13.636 2°56.017 20.4285 0.009811 0.054533 -3.020363
2011-07-15 04:33:29 51°13.636 2°56.017 20.4281 0.009811 0.054534 -3.020363
2011-07-15 04:33:34 51°13.636 2°56.017 20.4281 0.009811 0.054533 -3.020363
2011-07-15 04:33:39 51°13.636 2°56.017 20.4274 0.009811 0.054533 -3.020363
2011-07-15 04:33:44 51°13.636 2°56.017 20.4277 0.009811 0.054533 -3.020363
2011-07-15 04:33:49 51°13.636 2°56.017 20.4271 0.009811 0.054533 -3.020363
2011-07-15 04:33:54 51°13.636 2°56.017 20.4271 0.009811 0.054533 -3.020363
2011-07-15 04:33:59 51°13.636 2°56.017 20.4261 0.009811 0.054533 -3.020363
2011-07-15 04:34:04 51°13.636 2°56.017 20.4271 0.009811 0.054533 -3.020363
2011-07-15 04:34:08 51°13.636 2°56.017 20.4265 0.009811 0.054533 -3.020363
2011-07-15 04:34:13 51°13.636 2°56.017 20.4267 0.009811 0.054533 -3.020363
2011-07-15 04:34:18 51°13.636 2°56.017 20.4262 0.009811 0.054533 -3.020363
2011-07-15 04:34:23 51°13.636 2°56.017 20.4264 0.009811 0.054532 -3.020363
2011-07-15 04:34:28 51°13.636 2°56.017 20.4271 0.009811 0.054533 -3.020363
2011-07-15 04:34:33 51°13.636 2°56.017 20.4272 0.009811 0.054533 -3.020363
2011-07-15 04:34:38 51°13.636 2°56.018 20.4269 0.009811 0.054532 -3.020363
2011-07-15 04:34:43 51°13.636 2°56.018 20.4272 0.009811 0.054532 -3.020363
2011-07-15 04:34:48 51°13.636 2°56.018 20.4273 0.009811 0.054532 -3.020363
2011-07-15 04:34:53 51°13.636 2°56.018 20.4274 0.009811 0.054532 -3.020363
2011-07-15 04:34:58 51°13.636 2°56.018 20.4282 0.009811 0.054532 -3.020363
2011-07-15 04:35:03 51°13.636 2°56.018 20.429 0.009811 0.054532 -3.020363
2011-07-15 04:35:08 51°13.636 2°56.018 20.4278 0.009811 0.054532 -3.020363
2011-07-15 04:35:13 51°13.636 2°56.018 20.4269 0.009811 0.054532 -3.020363
2011-07-15 04:35:18 51°13.636 2°56.018 20.4272 0.009811 0.054532 -3.020363
2011-07-15 04:35:23 51°13.636 2°56.018 20.426 0.009811 0.054532 -3.020363
2011-07-15 04:35:28 51°13.636 2°56.018 20.4238 0.009811 0.054532 -3.020363
2011-07-15 04:35:33 51°13.636 2°56.018 20.4248 0.009811 0.054532 -3.020363
2011-07-15 04:35:38 51°13.636 2°56.018 20.4244 0.009811 0.054532 -3.020363
2011-07-15 04:35:43 51°13.636 2°56.018 20.426 0.009811 0.054532 -3.020363
2011-07-15 04:35:48 51°13.636 2°56.018 20.4254 0.009811 0.054532 -3.020363
2011-07-15 04:35:53 51°13.636 2°56.018 20.4249 0.009811 0.054532 -3.020363
2011-07-15 04:35:58 51°13.636 2°56.018 20.4254 0.009811 0.054532 -3.020363
2011-07-15 04:36:03 51°13.636 2°56.018 20.4264 0.009811 0.054532 -3.020363
2011-07-15 04:36:09 51°13.636 2°56.018 20.4247 0.009811 0.054532 -3.020363
2011-07-15 04:36:13 51°13.636 2°56.018 20.4252 0.009811 0.054532 -3.020363
2011-07-15 04:36:18 51°13.636 2°56.018 20.4251 0.009811 0.054532 -3.020363
2011-07-15 04:36:23 51°13.636 2°56.018 20.4251 0.009811 0.054532 -3.020363
2011-07-15 04:36:29 51°13.636 2°56.018 20.425 0.009811 0.054532 -3.020363
2011-07-15 04:36:33 51°13.636 2°56.018 20.4243 0.009811 0.054532 -3.020363
2011-07-15 04:36:39 51°13.636 2°56.018 20.4251 0.009811 0.054532 -3.020363
2011-07-15 04:36:44 51°13.636 2°56.019 20.4258 0.009811 0.054532 -3.020363
2011-07-15 04:36:49 51°13.636 2°56.018 20.4246 0.009811 0.054532 -3.020363
2011-07-15 04:36:54 51°13.636 2°56.018 20.4254 0.009811 0.054532 -3.020363
2011-07-15 04:36:58 51°13.636 2°56.018 20.4254 0.009811 0.054532 -3.020363
2011-07-15 04:37:04 51°13.636 2°56.018 20.4252 0.009811 0.054532 -3.020363
2011-07-15 04:37:09 51°13.636 2°56.019 20.4248 0.009811 0.054532 -3.020363
2011-07-15 04:37:13 51°13.636 2°56.018 20.4246 0.009811 0.054531 -3.020363
2011-07-15 04:37:19 51°13.636 2°56.018 20.4254 0.009811 0.054531 -3.020363
2011-07-15 04:37:24 51°13.636 2°56.018 20.425 0.009811 0.054531 -3.020363
2011-07-15 04:37:29 51°13.636 2°56.018 20.4246 0.009811 0.054532 -3.020363
2011-07-15 04:37:33 51°13.636 2°56.018 20.4261 0.009811 0.054531 -3.020363
2011-07-15 04:37:38 51°13.636 2°56.018 20.4255 0.009811 0.054531 -3.020363
2011-07-15 04:37:43 51°13.636 2°56.018 20.4268 0.009811 0.054531 -3.020363
2011-07-15 04:37:48 51°13.636 2°56.018 20.4272 0.009811 0.054531 -3.020363
2011-07-15 04:37:53 51°13.636 2°56.018 20.4278 0.009811 0.054531 -3.020363
2011-07-15 04:37:58 51°13.636 2°56.018 20.4276 0.009811 0.054531 -3.020363
2011-07-15 04:38:03 51°13.636 2°56.018 20.4285 0.009811 0.054531 -3.020363
2011-07-15 04:38:08 51°13.636 2°56.018 20.4279 0.009811 0.054531 -3.020363
2011-07-15 04:38:13 51°13.636 2°56.018 20.4274 0.009811 0.054531 -3.020363
2011-07-15 04:38:18 51°13.636 2°56.018 20.428 0.009811 0.054531 -3.020363
2011-07-15 04:38:23 51°13.636 2°56.018 20.4273 0.009811 0.054531 -3.020363
2011-07-15 04:38:28 51°13.636 2°56.018 20.4268 0.009811 0.054531 -3.020363
2011-07-15 04:38:33 51°13.636 2°56.018 20.4268 0.009811 0.054531 -3.020363
2011-07-15 04:38:38 51°13.636 2°56.018 20.4264 0.009811 0.054531 -3.020363
2011-07-15 04:38:43 51°13.636 2°56.018 20.4266 0.009811 0.05453 -3.020363
2011-07-15 04:38:48 51°13.636 2°56.018 20.427 0.009811 0.05453 -3.020363
2011-07-15 04:38:53 51°13.636 2°56.018 20.4268 0.009811 0.05453 -3.020363
2011-07-15 04:38:58 51°13.636 2°56.018 20.4258 0.009811 0.05453 -3.020363
2011-07-15 04:39:04 51°13.637 2°56.018 20.4256 0.009811 0.05453 -3.020363
2011-07-15 04:39:09 51°13.637 2°56.017 20.4256 0.009811 0.054531 -3.020363
2011-07-15 04:39:13 51°13.636 2°56.017 20.4263 0.009811 0.05453 -3.020363
2011-07-15 04:39:19 51°13.637 2°56.017 20.4262 0.009811 0.05453 -3.020363
2011-07-15 04:39:23 51°13.636 2°56.017 20.4269 0.009811 0.05453 -3.020363
2011-07-15 04:39:28 51°13.636 2°56.017 20.4267 0.009811 0.05453 -3.020363
2011-07-15 04:39:33 51°13.636 2°56.017 20.4268 0.009811 0.05453 -3.020363
2011-07-15 04:39:38 51°13.636 2°56.017 20.4269 0.009811 0.05453 -3.020363
2011-07-15 04:39:43 51°13.636 2°56.017 20.4262 0.009811 0.05453 -3.020363
2011-07-15 04:39:48 51°13.636 2°56.017 20.4262 0.009811 0.05453 -3.020363
2011-07-15 04:39:53 51°13.636 2°56.017 20.4258 0.009811 0.05453 -3.020363
2011-07-15 04:39:59 51°13.636 2°56.017 20.4251 0.009811 0.05453 -3.020363
2011-07-15 04:40:03 51°13.636 2°56.017 20.4246 0.009811 0.05453 -3.020363
2011-07-15 04:40:08 51°13.636 2°56.018 20.4246 0.009811 0.05453 -3.020363
2011-07-15 04:40:13 51°13.636 2°56.017 20.4245 0.009811 0.05453 -3.020363
2011-07-15 04:40:18 51°13.636 2°56.017 20.425 0.009811 0.05453 -3.020363
2011-07-15 04:40:23 51°13.636 2°56.017 20.4253 0.009811 0.05453 -3.020363
2011-07-15 04:40:28 51°13.636 2°56.017 20.425 0.009811 0.05453 -3.020363
2011-07-15 04:40:34 51°13.636 2°56.017 20.4253 0.009811 0.05453 -3.020363
2011-07-15 04:40:38 51°13.636 2°56.017 20.4253 0.009811 0.05453 -3.020363
2011-07-15 04:40:44 51°13.636 2°56.017 20.4252 0.009811 0.05453 -3.020363
2011-07-15 04:40:49 51°13.636 2°56.017 20.4257 0.009811 0.05453 -3.020363
2011-07-15 04:40:53 51°13.636 2°56.017 20.4254 0.009811 0.05453 -3.020363
2011-07-15 04:40:59 51°13.636 2°56.017 20.4252 0.009811 0.05453 -3.020363
2011-07-15 04:41:04 51°13.636 2°56.017 20.4245 0.009811 0.05453 -3.020363
2011-07-15 04:41:08 51°13.636 2°56.017 20.4254 0.009811 0.05453 -3.020363
2011-07-15 04:41:14 51°13.636 2°56.017 20.425 0.009811 0.05453 -3.020363
2011-07-15 04:41:19 51°13.636 2°56.017 20.4252 0.009811 0.05453 -3.020363
2011-07-15 04:41:24 51°13.636 2°56.017 20.4249 0.009811 0.05453 -3.020363
2011-07-15 04:41:28 51°13.636 2°56.017 20.4241 0.009811 0.05453 -3.020363
2011-07-15 04:41:34 51°13.636 2°56.017 20.4251 0.009811 0.05453 -3.020363
2011-07-15 04:41:39 51°13.637 2°56.017 20.4236 0.009811 0.05453 -3.020363
2011-07-15 04:41:43 51°13.637 2°56.017 20.4245 0.009811 0.05453 -3.020363
2011-07-15 04:41:48 51°13.636 2°56.017 20.4236 0.009811 0.05453 -3.020363
2011-07-15 04:41:53 51°13.636 2°56.017 20.4252 0.009811 0.05453 -3.020363
2011-07-15 04:41:58 51°13.637 2°56.017 20.4242 0.009811 0.05453 -3.020363
2011-07-15 04:42:03 51°13.636 2°56.017 20.4239 0.009811 0.05453 -3.020363
2011-07-15 04:42:08 51°13.636 2°56.017 20.4223 0.009811 0.054529 -3.020363
2011-07-15 04:42:13 51°13.636 2°56.017 20.4232 0.009811 0.05453 -3.020363
2011-07-15 04:42:18 51°13.636 2°56.017 20.4221 0.009811 0.05453 -3.020363
2011-07-15 04:42:23 51°13.636 2°56.017 20.4224 0.009811 0.054529 -3.020363
2011-07-15 04:42:28 51°13.636 2°56.017 20.4215 0.009811 0.054529 -3.020363
2011-07-15 04:42:33 51°13.636 2°56.017 20.4227 0.009811 0.054529 -3.020363
2011-07-15 04:42:39 51°13.636 2°56.017 20.422 0.009811 0.054529 -3.020363
2011-07-15 04:42:44 51°13.636 2°56.017 20.4218 0.009811 0.054529 -3.020363
2011-07-15 04:42:49 51°13.636 2°56.017 20.4234 0.009811 0.054529 -3.020363
2011-07-15 04:42:54 51°13.636 2°56.017 20.4232 0.009811 0.054529 -3.020363
2011-07-15 04:42:59 51°13.637 2°56.017 20.4239 0.009811 0.054529 -3.020363
2011-07-15 04:43:03 51°13.637 2°56.017 20.4234 0.009811 0.054529 -3.020363
2011-07-15 04:43:08 51°13.637 2°56.016 20.4243 0.009811 0.054529 -3.020363
2011-07-15 04:43:14 51°13.637 2°56.016 20.4244 0.009811 0.054529 -3.020363
2011-07-15 04:43:19 51°13.637 2°56.016 20.4245 0.009811 0.054529 -3.020363
2011-07-15 04:43:24 51°13.637 2°56.016 20.4236 0.009811 0.054529 -3.020363
2011-07-15 04:43:29 51°13.637 2°56.016 20.4246 0.009811 0.054529 -3.020363
2011-07-15 04:43:33 51°13.637 2°56.016 20.4244 0.009811 0.054528 -3.020363
2011-07-15 04:43:39 51°13.637 2°56.016 20.4213 0.009811 0.054529 -3.020363
2011-07-15 04:43:44 51°13.637 2°56.016 20.4227 0.009811 0.054529 -3.020363
2011-07-15 04:43:49 51°13.637 2°56.016 20.4225 0.009811 0.054529 -3.020363
2011-07-15 04:43:53 51°13.637 2°56.016 20.4232 0.009811 0.054529 -3.020363
2011-07-15 04:43:59 51°13.637 2°56.016 20.4236 0.009811 0.054529 -3.020363
2011-07-15 04:44:04 51°13.637 2°56.016 20.4243 0.009811 0.054529 -3.020363
2011-07-15 04:44:09 51°13.637 2°56.016 20.4234 0.009811 0.054528 -3.020363
2011-07-15 04:44:14 51°13.637 2°56.016 20.4232 0.009811 0.054528 -3.020363
2011-07-15 04:44:19 51°13.637 2°56.016 20.4225 0.009811 0.054528 -3.020363
2011-07-15 04:44:23 51°13.637 2°56.016 20.422 0.009811 0.054529 -3.020363
2011-07-15 04:44:28 51°13.637 2°56.016 20.4212 0.009811 0.054528 -3.020363
2011-07-15 04:44:34 51°13.637 2°56.016 20.4211 0.009811 0.054528 -3.020363
2011-07-15 04:44:39 51°13.637 2°56.016 20.4218 0.009811 0.054528 -3.020363
2011-07-15 04:44:43 51°13.637 2°56.016 20.4201 0.009811 0.054528 -3.020363
2011-07-15 04:44:48 51°13.637 2°56.016 20.4205 0.009811 0.054528 -3.020363
2011-07-15 04:44:53 51°13.637 2°56.016 20.4205 0.009811 0.054528 -3.020363
2011-07-15 04:44:58 51°13.637 2°56.016 20.4205 0.009811 0.054528 -3.020363
2011-07-15 04:45:03 51°13.637 2°56.016 20.4207 0.009811 0.054528 -3.020363
2011-07-15 04:45:08 51°13.637 2°56.016 20.4209 0.009811 0.054528 -3.020363
2011-07-15 04:45:13 51°13.637 2°56.016 20.4223 0.009811 0.054528 -3.020363
2011-07-15 04:45:18 51°13.637 2°56.016 20.4209 0.009811 0.054528 -3.020363
2011-07-15 04:45:23 51°13.637 2°56.016 20.4218 0.009811 0.054528 -3.020363
2011-07-15 04:45:28 51°13.637 2°56.016 20.4216 0.009811 0.054528 -3.020363
2011-07-15 04:45:33 51°13.637 2°56.017 20.422 0.009811 0.054528 -3.020363
2011-07-15 04:45:38 51°13.637 2°56.017 20.4224 0.009811 0.054528 -3.020363
2011-07-15 04:45:43 51°13.637 2°56.017 20.4223 0.009811 0.054528 -3.020363
2011-07-15 04:45:48 51°13.637 2°56.017 20.422 0.009811 0.054528 -3.020363
2011-07-15 04:45:53 51°13.637 2°56.017 20.4222 0.009811 0.054528 -3.020363
2011-07-15 04:45:58 51°13.637 2°56.017 20.4225 0.009811 0.054528 -3.020363
2011-07-15 04:46:03 51°13.636 2°56.018 20.4221 0.009811 0.054528 -3.020363
2011-07-15 04:46:08 51°13.636 2°56.018 20.423 0.009811 0.054528 -3.020363
2011-07-15 04:46:13 51°13.636 2°56.018 20.4227 0.009811 0.054528 -3.020363
2011-07-15 04:46:18 51°13.636 2°56.018 20.4238 0.009811 0.054528 -3.020363
2011-07-15 04:46:23 51°13.636 2°56.018 20.4233 0.009811 0.054528 -3.020363
2011-07-15 04:46:28 51°13.636 2°56.018 20.4234 0.009811 0.054528 -3.020363
2011-07-15 04:46:33 51°13.636 2°56.018 20.4236 0.009811 0.054528 -3.020363
2011-07-15 04:46:38 51°13.636 2°56.018 20.4237 0.009811 0.054528 -3.020363
2011-07-15 04:46:43 51°13.636 2°56.018 20.4237 0.009811 0.054528 -3.020363
2011-07-15 04:46:48 51°13.637 2°56.018 20.4235 0.009811 0.054528 -3.020363
2011-07-15 04:46:53 51°13.637 2°56.018 20.4229 0.009811 0.054528 -3.020363
2011-07-15 04:46:58 51°13.637 2°56.018 20.4236 0.009811 0.054528 -3.020363
2011-07-15 04:47:03 51°13.637 2°56.018 20.4225 0.009811 0.054528 -3.020363
2011-07-15 04:47:08 51°13.637 2°56.018 20.4231 0.009811 0.054528 -3.020363
2011-07-15 04:47:13 51°13.637 2°56.018 20.422 0.009811 0.054528 -3.020363
2011-07-15 04:47:18 51°13.637 2°56.018 20.4229 0.009811 0.054528 -3.020363
2011-07-15 04:47:23 51°13.637 2°56.018 20.4214 0.009811 0.054528 -3.020363
2011-07-15 04:47:28 51°13.637 2°56.018 20.4214 0.009811 0.054528 -3.020363
2011-07-15 04:47:33 51°13.637 2°56.017 20.4211 0.009811 0.054528 -3.020363
2011-07-15 04:47:38 51°13.637 2°56.017 20.4213 0.009811 0.054528 -3.020363
2011-07-15 04:47:43 51°13.637 2°56.017 20.4207 0.009811 0.054528 -3.020363
2011-07-15 04:47:49 51°13.637 2°56.017 20.4206 0.009811 0.054528 -3.020363
2011-07-15 04:47:54 51°13.637 2°56.017 20.4211 0.009811 0.054528 -3.020363
2011-07-15 04:47:59 51°13.637 2°56.017 20.4211 0.009811 0.054527 -3.020363
2011-07-15 04:48:04 51°13.637 2°56.017 20.4221 0.009811 0.054528 -3.020363
2011-07-15 04:48:09 51°13.637 2°56.017 20.4218 0.009811 0.054528 -3.020363
2011-07-15 04:48:13 51°13.637 2°56.017 20.4225 0.009811 0.054528 -3.020363
2011-07-15 04:48:18 51°13.637 2°56.018 20.4217 0.009811 0.054528 -3.020363
2011-07-15 04:48:23 51°13.636 2°56.018 20.422 0.009811 0.054527 -3.020363
2011-07-15 04:48:28 51°13.636 2°56.018 20.4221 0.009811 0.054527 -3.020363
2011-07-15 04:48:33 51°13.637 2°56.018 20.4208 0.009811 0.054527 -3.020363
2011-07-15 04:48:38 51°13.636 2°56.018 20.4201 0.009811 0.054527 -3.020363
2011-07-15 04:48:43 51°13.637 2°56.018 20.4208 0.009811 0.054527 -3.020363
2011-07-15 04:48:48 51°13.637 2°56.018 20.4212 0.009811 0.054527 -3.020363
2011-07-15 04:48:53 51°13.637 2°56.018 20.4217 0.009811 0.054527 -3.020363
2011-07-15 04:48:59 51°13.637 2°56.018 20.4214 0.009811 0.054527 -3.020363
2011-07-15 04:49:03 51°13.637 2°56.018 20.4193 0.009811 0.054527 -3.020363
2011-07-15 04:49:08 51°13.637 2°56.018 20.4195 0.009811 0.054527 -3.020363
2011-07-15 04:49:14 51°13.636 2°56.018 20.4178 0.009811 0.054527 -3.020363
2011-07-15 04:49:18 51°13.637 2°56.018 20.419 0.009811 0.054527 -3.020363
2011-07-15 04:49:23 51°13.637 2°56.017 20.4159 0.009811 0.054527 -3.020363
2011-07-15 04:49:28 51°13.637 2°56.017 20.4162 0.009811 0.054527 -3.020363
2011-07-15 04:49:33 51°13.637 2°56.018 20.4165 0.009811 0.054527 -3.020363
2011-07-15 04:49:38 51°13.637 2°56.018 20.4169 0.009811 0.054527 -3.020363
2011-07-15 04:49:43 51°13.637 2°56.018 20.4178 0.009811 0.054527 -3.020363
2011-07-15 04:49:48 51°13.637 2°56.018 20.4182 0.009811 0.054527 -3.020363
2011-07-15 04:49:53 51°13.637 2°56.018 20.4176 0.009811 0.054527 -3.020363
2011-07-15 04:49:58 51°13.637 2°56.018 20.4183 0.009811 0.054527 -3.020363
2011-07-15 04:50:03 51°13.637 2°56.018 20.4171 0.009811 0.054527 -3.020363
2011-07-15 04:50:08 51°13.637 2°56.018 20.4171 0.009811 0.054526 -3.020363
2011-07-15 04:50:13 51°13.637 2°56.018 20.4172 0.009811 0.054527 -3.020363
2011-07-15 04:50:19 51°13.637 2°56.018 20.4178 0.009811 0.054527 -3.020363
2011-07-15 04:50:24 51°13.637 2°56.018 20.4183 0.009811 0.054526 -3.020363
2011-07-15 04:50:28 51°13.637 2°56.018 20.4185 0.009811 0.054526 -3.020363
2011-07-15 04:50:34 51°13.637 2°56.018 20.4209 0.009811 0.054526 -3.020363
2011-07-15 04:50:38 51°13.637 2°56.018 20.4218 0.009811 0.054527 -3.020363
2011-07-15 04:50:43 51°13.637 2°56.018 20.4228 0.009811 0.054527 -3.020363
2011-07-15 04:50:48 51°13.637 2°56.018 20.423 0.009811 0.054527 -3.020363
2011-07-15 04:50:53 51°13.637 2°56.018 20.4231 0.009811 0.054527 -3.020363
2011-07-15 04:50:58 51°13.637 2°56.018 20.4226 0.009811 0.054526 -3.020363
2011-07-15 04:51:03 51°13.637 2°56.018 20.4233 0.009811 0.054526 -3.020363
2011-07-15 04:51:08 51°13.637 2°56.018 20.4231 0.009811 0.054526 -3.020363
2011-07-15 04:51:13 51°13.637 2°56.018 20.4237 0.009811 0.054526 -3.020363
2011-07-15 04:51:18 51°13.637 2°56.018 20.4254 0.009811 0.054526 -3.020363
2011-07-15 04:51:23 51°13.637 2°56.018 20.427 0.009811 0.054526 -3.020363
2011-07-15 04:51:28 51°13.637 2°56.018 20.4285 0.009811 0.054526 -3.020363
2011-07-15 04:51:33 51°13.637 2°56.018 20.4276 0.009811 0.054526 -3.020363
2011-07-15 04:51:38 51°13.637 2°56.018 20.4275 0.009811 0.054526 -3.020363
2011-07-15 04:51:43 51°13.637 2°56.018 20.4272 0.009811 0.054526 -3.020363
2011-07-15 04:51:48 51°13.637 2°56.018 20.4273 0.009811 0.054526 -3.020363
2011-07-15 04:51:54 51°13.637 2°56.018 20.4271 0.009811 0.054526 -3.020363
2011-07-15 04:51:59 51°13.637 2°56.018 20.4273 0.009811 0.054526 -3.020363
2011-07-15 04:52:04 51°13.637 2°56.018 20.4275 0.009811 0.054526 -3.020363
2011-07-15 04:52:09 51°13.637 2°56.018 20.4268 0.009811 0.054526 -3.020363
2011-07-15 04:52:13 51°13.637 2°56.018 20.4274 0.009811 0.054526 -3.020363
2011-07-15 04:52:19 51°13.637 2°56.018 20.4277 0.009811 0.054526 -3.020363
2011-07-15 04:52:23 51°13.636 2°56.018 20.4285 0.009811 0.054526 -3.020363
2011-07-15 04:52:28 51°13.636 2°56.019 20.4276 0.009708 0.054011 -3.020363
2011-07-15 04:52:33 51°13.636 2°56.019 20.4267 0.009708 0.054011 -3.020363
2011-07-15 04:52:38 51°13.636 2°56.018 20.4265 0.009811 0.054526 -3.020363
2011-07-15 04:52:43 51°13.636 2°56.018 20.4258 0.009811 0.054526 -3.020363
2011-07-15 04:52:49 51°13.637 2°56.018 20.4256 0.009811 0.054526 -3.020363
2011-07-15 04:52:53 51°13.637 2°56.018 20.4257 0.009708 0.054011 -3.020363
2011-07-15 04:52:58 51°13.637 2°56.018 20.4251 0.009811 0.054526 -3.020363
2011-07-15 04:53:03 51°13.637 2°56.018 20.4244 0.009708 0.054011 -3.020363
2011-07-15 04:53:09 51°13.636 2°56.018 20.4244 0.009811 0.054526 -3.020363
2011-07-15 04:53:13 51°13.636 2°56.018 20.4247 0.009708 0.054011 -3.020363
2011-07-15 04:53:18 51°13.636 2°56.018 20.4249 0.009708 0.054011 -3.020363
2011-07-15 04:53:23 51°13.636 2°56.018 20.425 0.009811 0.054526 -3.020363
2011-07-15 04:53:28 51°13.636 2°56.018 20.4251 0.009708 0.054011 -3.020363
2011-07-15 04:53:33 51°13.637 2°56.018 20.4256 0.009811 0.054526 -3.020363
2011-07-15 04:53:38 51°13.637 2°56.017 20.4236 0.009708 0.054011 -3.020363
2011-07-15 04:53:43 51°13.637 2°56.017 20.4235 0.009708 0.054011 -3.020363
2011-07-15 04:53:48 51°13.637 2°56.017 20.4232 0.009708 0.054011 -3.020363
2011-07-15 04:53:54 51°13.637 2°56.017 20.4234 0.009811 0.054526 -3.020363
2011-07-15 04:53:59 51°13.637 2°56.017 20.4225 0.009811 0.054526 -3.020363
2011-07-15 04:54:03 51°13.637 2°56.017 20.4237 0.009811 0.054526 -3.020363
2011-07-15 04:54:09 51°13.637 2°56.017 20.4236 0.009708 0.054011 -3.020363
2011-07-15 04:54:14 51°13.637 2°56.017 20.4244 0.009708 0.054011 -3.020363
2011-07-15 04:54:18 51°13.637 2°56.017 20.4231 0.009708 0.054011 -3.020363
2011-07-15 04:54:24 51°13.637 2°56.017 20.424 0.009708 0.054011 -3.020363
2011-07-15 04:54:29 51°13.637 2°56.017 20.423 0.009811 0.054526 -3.020363
2011-07-15 04:54:33 51°13.637 2°56.017 20.4215 0.009811 0.054526 -3.020363
2011-07-15 04:54:38 51°13.637 2°56.017 20.4211 0.009811 0.054526 -3.020363
2011-07-15 04:54:44 51°13.637 2°56.017 20.4205 0.009811 0.054526 -3.020363
2011-07-15 04:54:48 51°13.637 2°56.017 20.4211 0.009811 0.054526 -3.020363
2011-07-15 04:54:53 51°13.637 2°56.017 20.4207 0.009708 0.054011 -3.020363
2011-07-15 04:54:58 51°13.637 2°56.017 20.4214 0.009811 0.054526 -3.020363
2011-07-15 04:55:03 51°13.637 2°56.017 20.4221 0.009811 0.054526 -3.020363
2011-07-15 04:55:08 51°13.637 2°56.017 20.4211 0.009708 0.054011 -3.020363
2011-07-15 04:55:13 51°13.637 2°56.016 20.4213 0.009811 0.054526 -3.020363
2011-07-15 04:55:18 51°13.637 2°56.016 20.4206 0.009811 0.054526 -3.020363
2011-07-15 04:55:23 51°13.637 2°56.016 20.4207 0.009708 0.05401 -3.020363
2011-07-15 04:55:29 51°13.638 2°56.016 20.4193 0.009708 0.054011 -3.020363
2011-07-15 04:55:34 51°13.638 2°56.016 20.4195 0.009811 0.054526 -3.020363
2011-07-15 04:55:39 51°13.638 2°56.016 20.42 0.009811 0.054526 -3.020363
2011-07-15 04:55:44 51°13.638 2°56.016 20.4198 0.009708 0.054011 -3.020363
2011-07-15 04:55:49 51°13.638 2°56.016 20.42 0.009708 0.054011 -3.020363
2011-07-15 04:55:54 51°13.638 2°56.016 20.4206 0.009811 0.054526 -3.020363
2011-07-15 04:55:59 51°13.638 2°56.016 20.421 0.009811 0.054525 -3.020363
2011-07-15 04:56:04 51°13.638 2°56.016 20.4202 0.009811 0.054526 -3.020363
2011-07-15 04:56:09 51°13.638 2°56.015 20.4205 0.009811 0.054526 -3.020363
2011-07-15 04:56:13 51°13.638 2°56.015 20.4202 0.009708 0.054011 -3.020363
2011-07-15 04:56:18 51°13.638 2°56.016 20.4198 0.009708 0.054011 -3.020363
2011-07-15 04:56:23 51°13.638 2°56.016 20.4196 0.009708 0.054011 -3.020363
2011-07-15 04:56:29 51°13.638 2°56.016 20.4196 0.009708 0.054011 -3.020363
2011-07-15 04:56:33 51°13.637 2°56.016 20.4199 0.009708 0.05401 -3.020363
2011-07-15 04:56:38 51°13.638 2°56.016 20.4195 0.009708 0.05401 -3.020363
2011-07-15 04:56:43 51°13.638 2°56.016 20.4183 0.009708 0.05401 -3.020363
2011-07-15 04:56:48 51°13.637 2°56.015 20.4189 0.009708 0.05401 -3.020363
2011-07-15 04:56:53 51°13.638 2°56.015 20.4194 0.009811 0.054525 -3.020363
2011-07-15 04:56:58 51°13.638 2°56.015 20.42 0.009708 0.05401 -3.020363
2011-07-15 04:57:03 51°13.638 2°56.015 20.4203 0.009708 0.05401 -3.020363
2011-07-15 04:57:08 51°13.638 2°56.015 20.4203 0.009708 0.054011 -3.020363
2011-07-15 04:57:13 51°13.638 2°56.015 20.4207 0.009708 0.05401 -3.020363
2011-07-15 04:57:19 51°13.638 2°56.015 20.421 0.009708 0.05401 -3.020363
2011-07-15 04:57:24 51°13.638 2°56.015 20.4213 0.009708 0.05401 -3.020363
2011-07-15 04:57:29 51°13.638 2°56.014 20.4215 0.009708 0.05401 -3.020363
2011-07-15 04:57:34 51°13.638 2°56.015 20.421 0.009708 0.05401 -3.020363
2011-07-15 04:57:38 51°13.638 2°56.015 20.4203 0.009708 0.05401 -3.020363
2011-07-15 04:57:44 51°13.638 2°56.015 20.4207 0.009708 0.05401 -3.020363
2011-07-15 04:57:49 51°13.638 2°56.015 20.4208 0.009708 0.05401 -3.020363
2011-07-15 04:57:53 51°13.638 2°56.015 20.4213 0.009708 0.05401 -3.020363
2011-07-15 04:57:59 51°13.638 2°56.015 20.4209 0.009708 0.05401 -3.020363
2011-07-15 04:58:04 51°13.638 2°56.015 20.4221 0.009708 0.05401 -3.020363
2011-07-15 04:58:08 51°13.638 2°56.015 20.4221 0.009708 0.05401 -3.020363
2011-07-15 04:58:13 51°13.638 2°56.015 20.4234 0.009708 0.05401 -3.020363
2011-07-15 04:58:19 51°13.638 2°56.015 20.4232 0.009708 0.05401 -3.020363
2011-07-15 04:58:23 51°13.638 2°56.015 20.4231 0.009708 0.05401 -3.020363
2011-07-15 04:58:28 51°13.638 2°56.015 20.4227 0.009708 0.05401 -3.020363
2011-07-15 04:58:34 51°13.638 2°56.015 20.4228 0.009708 0.05401 -3.020363
2011-07-15 04:58:39 51°13.638 2°56.015 20.4222 0.009708 0.05401 -3.020363
2011-07-15 04:58:43 51°13.638 2°56.015 20.4219 0.009708 0.05401 -3.020363
2011-07-15 04:58:48 51°13.638 2°56.015 20.4225 0.009708 0.05401 -3.020363
2011-07-15 04:58:54 51°13.638 2°56.014 20.4217 0.009708 0.054009 -3.020363
2011-07-15 04:58:59 51°13.638 2°56.015 20.422 0.009708 0.05401 -3.020363
2011-07-15 04:59:03 51°13.638 2°56.015 20.4215 0.009708 0.05401 -3.020363
2011-07-15 04:59:09 51°13.638 2°56.015 20.4215 0.009708 0.05401 -3.020363
2011-07-15 04:59:14 51°13.638 2°56.015 20.4212 0.009708 0.05401 -3.020363
2011-07-15 04:59:18 51°13.637 2°56.015 20.4206 0.009708 0.05401 -3.020363
2011-07-15 04:59:23 51°13.637 2°56.015 20.4206 0.009708 0.05401 -3.020363
2011-07-15 04:59:29 51°13.637 2°56.015 20.4194 0.009708 0.054009 -3.020363
2011-07-15 04:59:33 51°13.637 2°56.015 20.4188 0.009708 0.05401 -3.020363